N14801 KBFI-PAKT
Flight info
| Callsign | N14801 |
|---|---|
| Flight time | 3h 53m |
| Altitude | 10000 |
| Route | AYURU T268 WATTR T487 DISCO T719 PIBSI T645 KELSY V347 YZT ESTIT T757 BOKMA V317 ANN |
| Aircraft | C208/L-SDFGR/C |
Departure
| Time | 2026-05-05 13:05 |
|---|---|
| Airport | King County International Airport - Boeing Field (KBFI) |
Arrival
| Time | 2026-05-05 16:59 |
|---|---|
| Airport | Ketchikan International Airport (PAKT) |
| Time | Latitude | Longitude | Altitude | Speed | Heading |
|---|---|---|---|---|---|
| 2026-05-05 12:49 | 47.52754 | -122.29706 | 19 ft | 0 kts | 341° |
| 2026-05-05 12:59 | 47.52757 | -122.29748 | 18 ft | 10 kts | 250° |
| 2026-05-05 13:00 | 47.52838 | -122.29827 | 18 ft | 7 kts | 349° |
| 2026-05-05 13:00 | 47.52886 | -122.29852 | 20 ft | 7 kts | 332° |
| 2026-05-05 13:01 | 47.53077 | -122.30012 | 25 ft | 16 kts | 329° |
| 2026-05-05 13:01 | 47.53179 | -122.30102 | 23 ft | 18 kts | 332° |
| 2026-05-05 13:01 | 47.53282 | -122.30185 | 24 ft | 15 kts | 332° |
| 2026-05-05 13:01 | 47.53365 | -122.30252 | 26 ft | 13 kts | 330° |
| 2026-05-05 13:02 | 47.53442 | -122.30319 | 21 ft | 13 kts | 332° |
| 2026-05-05 13:02 | 47.53496 | -122.30362 | 22 ft | 14 kts | 329° |
| 2026-05-05 13:02 | 47.53577 | -122.30435 | 22 ft | 13 kts | 330° |
| 2026-05-05 13:02 | 47.53656 | -122.30527 | 22 ft | 8 kts | 325° |
| 2026-05-05 13:03 | 47.53702 | -122.30569 | 23 ft | 9 kts | 332° |
| 2026-05-05 13:03 | 47.53749 | -122.30608 | 25 ft | 7 kts | 330° |
| 2026-05-05 13:03 | 47.53798 | -122.30656 | 24 ft | 7 kts | 311° |
| 2026-05-05 13:03 | 47.53796 | -122.30708 | 25 ft | 7 kts | 231° |
| 2026-05-05 13:04 | 47.53757 | -122.30706 | 25 ft | 11 kts | 156° |
| 2026-05-05 13:04 | 47.53608 | -122.30582 | 20 ft | 46 kts | 150° |
| 2026-05-05 13:04 | 47.53222 | -122.30251 | 56 ft | 76 kts | 150° |
| 2026-05-05 13:04 | 47.52759 | -122.29812 | 229 ft | 80 kts | 147° |
| 2026-05-05 13:05 | 47.52285 | -122.29286 | 355 ft | 94 kts | 143° |
| 2026-05-05 13:05 | 47.51824 | -122.28615 | 595 ft | 95 kts | 124° |
| 2026-05-05 13:05 | 47.51857 | -122.27587 | 740 ft | 108 kts | 61° |
| 2026-05-05 13:05 | 47.52420 | -122.26985 | 1072 ft | 103 kts | 11° |
| 2026-05-05 13:06 | 47.53139 | -122.26843 | 1327 ft | 105 kts | 359° |
| 2026-05-05 13:06 | 47.53873 | -122.26892 | 1580 ft | 107 kts | 351° |
| 2026-05-05 13:06 | 47.54626 | -122.26982 | 1824 ft | 111 kts | 354° |
| 2026-05-05 13:06 | 47.55411 | -122.27055 | 2064 ft | 115 kts | 354° |
| 2026-05-05 13:07 | 47.56222 | -122.26924 | 2275 ft | 119 kts | 8° |
| 2026-05-05 13:07 | 47.57038 | -122.26682 | 2497 ft | 121 kts | 11° |
| 2026-05-05 13:07 | 47.57861 | -122.26405 | 2717 ft | 122 kts | 12° |
| 2026-05-05 13:07 | 47.58709 | -122.26100 | 2871 ft | 130 kts | 12° |
| 2026-05-05 13:08 | 47.59630 | -122.25762 | 2945 ft | 142 kts | 13° |
| 2026-05-05 13:08 | 47.60621 | -122.25410 | 2977 ft | 150 kts | 13° |
| 2026-05-05 13:08 | 47.61656 | -122.25055 | 2991 ft | 155 kts | 13° |
| 2026-05-05 13:08 | 47.62705 | -122.24691 | 2987 ft | 158 kts | 12° |
| 2026-05-05 13:09 | 47.63775 | -122.24312 | 2986 ft | 159 kts | 13° |
| 2026-05-05 13:09 | 47.64856 | -122.23949 | 2995 ft | 160 kts | 13° |
| 2026-05-05 13:09 | 47.65942 | -122.23582 | 3031 ft | 158 kts | 13° |
| 2026-05-05 13:09 | 47.66999 | -122.23219 | 3190 ft | 153 kts | 13° |
| 2026-05-05 13:10 | 47.68016 | -122.22866 | 3398 ft | 146 kts | 13° |
| 2026-05-05 13:10 | 47.68985 | -122.22522 | 3619 ft | 140 kts | 13° |
| 2026-05-05 13:10 | 47.69910 | -122.22183 | 3845 ft | 135 kts | 13° |
| 2026-05-05 13:10 | 47.70804 | -122.21849 | 4070 ft | 130 kts | 13° |
| 2026-05-05 13:11 | 47.71669 | -122.21511 | 4328 ft | 126 kts | 14° |
| 2026-05-05 13:11 | 47.72502 | -122.21185 | 4543 ft | 121 kts | 12° |
| 2026-05-05 13:11 | 47.73306 | -122.20875 | 4768 ft | 118 kts | 12° |
| 2026-05-05 13:11 | 47.74089 | -122.20565 | 4990 ft | 115 kts | 12° |
| 2026-05-05 13:12 | 47.74856 | -122.20357 | 5206 ft | 110 kts | 354° |
| 2026-05-05 13:12 | 47.75584 | -122.20664 | 5438 ft | 108 kts | 340° |
| 2026-05-05 13:12 | 47.76278 | -122.21044 | 5654 ft | 104 kts | 342° |
| 2026-05-05 13:12 | 47.76950 | -122.21388 | 5870 ft | 100 kts | 343° |
| 2026-05-05 13:13 | 47.77593 | -122.21697 | 6083 ft | 94 kts | 344° |
| 2026-05-05 13:13 | 47.78195 | -122.21978 | 6302 ft | 87 kts | 344° |
| 2026-05-05 13:13 | 47.78739 | -122.22230 | 6488 ft | 78 kts | 344° |
| 2026-05-05 13:13 | 47.79280 | -122.22481 | 6540 ft | 86 kts | 346° |
| 2026-05-05 13:14 | 47.79891 | -122.22731 | 6639 ft | 94 kts | 346° |
| 2026-05-05 13:14 | 47.80527 | -122.22993 | 6753 ft | 99 kts | 346° |
| 2026-05-05 13:14 | 47.81207 | -122.23277 | 6864 ft | 104 kts | 345° |
| 2026-05-05 13:14 | 47.81927 | -122.23579 | 6960 ft | 110 kts | 345° |
| 2026-05-05 13:15 | 47.82682 | -122.23903 | 7052 ft | 116 kts | 345° |
| 2026-05-05 13:15 | 47.83469 | -122.24242 | 7143 ft | 120 kts | 344° |
| 2026-05-05 13:15 | 47.84282 | -122.24593 | 7235 ft | 123 kts | 344° |
| 2026-05-05 13:15 | 47.85117 | -122.24950 | 7330 ft | 126 kts | 345° |
| 2026-05-05 13:16 | 47.85970 | -122.25313 | 7423 ft | 128 kts | 344° |
| 2026-05-05 13:16 | 47.86832 | -122.25685 | 7518 ft | 130 kts | 345° |
| 2026-05-05 13:16 | 47.87700 | -122.26057 | 7613 ft | 131 kts | 344° |
| 2026-05-05 13:16 | 47.88580 | -122.26436 | 7711 ft | 132 kts | 345° |
| 2026-05-05 13:17 | 47.89463 | -122.26818 | 7806 ft | 133 kts | 344° |
| 2026-05-05 13:17 | 47.90351 | -122.27203 | 7905 ft | 133 kts | 345° |
| 2026-05-05 13:17 | 47.91231 | -122.27582 | 8001 ft | 134 kts | 344° |
| 2026-05-05 13:17 | 47.92099 | -122.28073 | 8100 ft | 135 kts | 329° |
| 2026-05-05 13:18 | 47.92758 | -122.29072 | 8187 ft | 137 kts | 307° |
| 2026-05-05 13:18 | 47.93262 | -122.30285 | 8293 ft | 138 kts | 304° |
| 2026-05-05 13:18 | 47.93761 | -122.31505 | 8391 ft | 138 kts | 304° |
| 2026-05-05 13:18 | 47.94267 | -122.32725 | 8492 ft | 138 kts | 304° |
| 2026-05-05 13:19 | 47.94776 | -122.33942 | 8594 ft | 138 kts | 304° |
| 2026-05-05 13:19 | 47.95284 | -122.35157 | 8692 ft | 138 kts | 305° |
| 2026-05-05 13:19 | 47.95793 | -122.36372 | 8793 ft | 138 kts | 304° |
| 2026-05-05 13:19 | 47.96305 | -122.37591 | 8898 ft | 139 kts | 304° |
| 2026-05-05 13:20 | 47.96824 | -122.38816 | 9002 ft | 140 kts | 306° |
| 2026-05-05 13:20 | 47.97344 | -122.40044 | 9103 ft | 140 kts | 304° |
| 2026-05-05 13:20 | 47.97864 | -122.41281 | 9201 ft | 141 kts | 304° |
| 2026-05-05 13:20 | 47.98383 | -122.42524 | 9306 ft | 141 kts | 305° |
| 2026-05-05 13:21 | 47.98905 | -122.43766 | 9408 ft | 141 kts | 304° |
| 2026-05-05 13:21 | 47.99422 | -122.44995 | 9493 ft | 141 kts | 306° |
| 2026-05-05 13:21 | 47.99944 | -122.46232 | 9591 ft | 140 kts | 304° |
| 2026-05-05 13:21 | 48.00464 | -122.47468 | 9690 ft | 140 kts | 305° |
| 2026-05-05 13:22 | 48.00980 | -122.48701 | 9794 ft | 140 kts | 304° |
| 2026-05-05 13:22 | 48.01502 | -122.49935 | 9892 ft | 140 kts | 305° |
| 2026-05-05 13:22 | 48.02016 | -122.51183 | 9948 ft | 143 kts | 304° |
| 2026-05-05 13:22 | 48.02547 | -122.52476 | 9960 ft | 148 kts | 304° |
| 2026-05-05 13:23 | 48.03102 | -122.53802 | 9970 ft | 152 kts | 305° |
| 2026-05-05 13:23 | 48.03667 | -122.55154 | 9974 ft | 154 kts | 305° |
| 2026-05-05 13:23 | 48.04241 | -122.56524 | 9975 ft | 157 kts | 304° |
| 2026-05-05 13:23 | 48.04817 | -122.57906 | 9977 ft | 156 kts | 305° |
| 2026-05-05 13:24 | 48.05395 | -122.59296 | 9970 ft | 159 kts | 304° |
| 2026-05-05 13:24 | 48.05976 | -122.60684 | 9975 ft | 160 kts | 304° |
| 2026-05-05 13:24 | 48.06568 | -122.62103 | 9980 ft | 161 kts | 304° |
| 2026-05-05 13:24 | 48.07166 | -122.63523 | 9981 ft | 162 kts | 305° |
| 2026-05-05 13:25 | 48.07769 | -122.64949 | 9982 ft | 162 kts | 305° |
| 2026-05-05 13:25 | 48.08320 | -122.66423 | 9985 ft | 164 kts | 295° |
| 2026-05-05 13:25 | 48.08703 | -122.68031 | 9985 ft | 165 kts | 291° |
| 2026-05-05 13:25 | 48.09033 | -122.69676 | 9987 ft | 165 kts | 287° |
| 2026-05-05 13:26 | 48.09338 | -122.71339 | 9993 ft | 165 kts | 289° |
| 2026-05-05 13:26 | 48.09663 | -122.72986 | 9994 ft | 165 kts | 288° |
| 2026-05-05 13:26 | 48.09985 | -122.74639 | 9995 ft | 165 kts | 288° |
| 2026-05-05 13:26 | 48.10310 | -122.76290 | 9994 ft | 166 kts | 288° |
| 2026-05-05 13:27 | 48.10638 | -122.77941 | 9994 ft | 166 kts | 290° |
| 2026-05-05 13:27 | 48.10974 | -122.79589 | 9993 ft | 165 kts | 290° |
| 2026-05-05 13:27 | 48.11297 | -122.81241 | 9990 ft | 166 kts | 287° |
| 2026-05-05 13:27 | 48.11618 | -122.82892 | 9932 ft | 166 kts | 288° |
| 2026-05-05 13:28 | 48.11948 | -122.84547 | 9938 ft | 166 kts | 289° |
| 2026-05-05 13:28 | 48.12273 | -122.86187 | 9939 ft | 166 kts | 289° |
| 2026-05-05 13:28 | 48.12604 | -122.87850 | 9933 ft | 167 kts | 289° |
| 2026-05-05 13:28 | 48.12936 | -122.89510 | 9934 ft | 167 kts | 288° |
| 2026-05-05 13:29 | 48.13267 | -122.91178 | 9935 ft | 167 kts | 288° |
| 2026-05-05 13:29 | 48.13598 | -122.92849 | 9946 ft | 167 kts | 288° |
| 2026-05-05 13:29 | 48.14151 | -122.94347 | 9941 ft | 165 kts | 316° |
| 2026-05-05 13:29 | 48.15107 | -122.95272 | 9949 ft | 164 kts | 332° |
| 2026-05-05 13:30 | 48.16092 | -122.96131 | 9955 ft | 164 kts | 329° |
| 2026-05-05 13:30 | 48.17062 | -122.97033 | 9955 ft | 164 kts | 328° |
| 2026-05-05 13:30 | 48.18033 | -122.97943 | 9955 ft | 165 kts | 328° |
| 2026-05-05 13:30 | 48.19005 | -122.98850 | 9956 ft | 165 kts | 329° |
| 2026-05-05 13:31 | 48.19979 | -122.99753 | 9957 ft | 165 kts | 329° |
| 2026-05-05 13:31 | 48.20957 | -123.00653 | 9957 ft | 165 kts | 329° |
| 2026-05-05 13:31 | 48.21934 | -123.01549 | 9963 ft | 165 kts | 329° |
| 2026-05-05 13:31 | 48.22901 | -123.02435 | 9963 ft | 165 kts | 329° |
| 2026-05-05 13:32 | 48.23879 | -123.03331 | 9963 ft | 165 kts | 329° |
| 2026-05-05 13:32 | 48.24856 | -123.04226 | 9968 ft | 165 kts | 329° |
| 2026-05-05 13:32 | 48.25836 | -123.05118 | 9970 ft | 165 kts | 330° |
| 2026-05-05 13:32 | 48.26810 | -123.06004 | 9956 ft | 164 kts | 329° |
| 2026-05-05 13:33 | 48.27778 | -123.06894 | 9955 ft | 163 kts | 329° |
| 2026-05-05 13:33 | 48.28742 | -123.07784 | 9955 ft | 162 kts | 329° |
| 2026-05-05 13:33 | 48.29702 | -123.08671 | 9957 ft | 162 kts | 330° |
| 2026-05-05 13:33 | 48.30660 | -123.09549 | 9959 ft | 161 kts | 329° |
| 2026-05-05 13:34 | 48.31615 | -123.10428 | 9961 ft | 161 kts | 330° |
| 2026-05-05 13:34 | 48.32570 | -123.11307 | 9962 ft | 161 kts | 329° |
| 2026-05-05 13:34 | 48.33525 | -123.12186 | 9963 ft | 161 kts | 329° |
| 2026-05-05 13:34 | 48.34480 | -123.13068 | 9964 ft | 161 kts | 330° |
| 2026-05-05 13:35 | 48.35433 | -123.13945 | 9966 ft | 161 kts | 329° |
| 2026-05-05 13:35 | 48.36389 | -123.14821 | 9967 ft | 161 kts | 330° |
| 2026-05-05 13:35 | 48.37342 | -123.15698 | 9964 ft | 161 kts | 330° |
| 2026-05-05 13:35 | 48.38296 | -123.16575 | 9965 ft | 161 kts | 330° |
| 2026-05-05 13:36 | 48.39248 | -123.17453 | 9967 ft | 161 kts | 329° |
| 2026-05-05 13:36 | 48.40203 | -123.18335 | 9966 ft | 161 kts | 329° |
| 2026-05-05 13:36 | 48.41156 | -123.19215 | 9967 ft | 160 kts | 329° |
| 2026-05-05 13:36 | 48.42110 | -123.20096 | 9972 ft | 160 kts | 329° |
| 2026-05-05 13:37 | 48.43062 | -123.20977 | 9965 ft | 161 kts | 329° |
| 2026-05-05 13:37 | 48.44001 | -123.21849 | 9966 ft | 161 kts | 330° |
| 2026-05-05 13:37 | 48.44954 | -123.22731 | 9968 ft | 160 kts | 329° |
| 2026-05-05 13:37 | 48.45904 | -123.23610 | 9968 ft | 160 kts | 329° |
| 2026-05-05 13:38 | 48.46857 | -123.24491 | 9971 ft | 161 kts | 330° |
| 2026-05-05 13:38 | 48.47810 | -123.25373 | 9972 ft | 160 kts | 330° |
| 2026-05-05 13:38 | 48.48761 | -123.26253 | 9973 ft | 160 kts | 329° |
| 2026-05-05 13:38 | 48.49715 | -123.27131 | 9971 ft | 161 kts | 329° |
| 2026-05-05 13:39 | 48.50653 | -123.28005 | 9968 ft | 161 kts | 329° |
| 2026-05-05 13:39 | 48.51606 | -123.28895 | 9968 ft | 160 kts | 329° |
| 2026-05-05 13:39 | 48.52555 | -123.29778 | 9960 ft | 160 kts | 329° |
| 2026-05-05 13:39 | 48.53506 | -123.30664 | 9961 ft | 161 kts | 329° |
| 2026-05-05 13:40 | 48.54457 | -123.31553 | 9960 ft | 161 kts | 329° |
| 2026-05-05 13:40 | 48.55409 | -123.32437 | 9959 ft | 161 kts | 329° |
| 2026-05-05 13:40 | 48.56362 | -123.33322 | 9964 ft | 161 kts | 329° |
| 2026-05-05 13:40 | 48.57316 | -123.34209 | 9959 ft | 161 kts | 329° |
| 2026-05-05 13:41 | 48.58272 | -123.35099 | 9959 ft | 161 kts | 330° |
| 2026-05-05 13:41 | 48.59224 | -123.35984 | 9958 ft | 161 kts | 329° |
| 2026-05-05 13:41 | 48.60166 | -123.36856 | 9963 ft | 161 kts | 329° |
| 2026-05-05 13:41 | 48.61120 | -123.37746 | 9957 ft | 161 kts | 329° |
| 2026-05-05 13:42 | 48.62070 | -123.38631 | 9956 ft | 160 kts | 329° |
| 2026-05-05 13:42 | 48.63019 | -123.39517 | 9963 ft | 160 kts | 329° |
| 2026-05-05 13:42 | 48.63968 | -123.40408 | 9959 ft | 161 kts | 329° |
| 2026-05-05 13:42 | 48.64918 | -123.41298 | 9964 ft | 161 kts | 329° |
| 2026-05-05 13:43 | 48.65868 | -123.42186 | 9970 ft | 161 kts | 329° |
| 2026-05-05 13:43 | 48.66821 | -123.43077 | 9959 ft | 161 kts | 329° |
| 2026-05-05 13:43 | 48.67775 | -123.43967 | 9958 ft | 161 kts | 329° |
| 2026-05-05 13:43 | 48.68730 | -123.44859 | 9957 ft | 161 kts | 329° |
| 2026-05-05 13:44 | 48.69685 | -123.45756 | 9957 ft | 161 kts | 329° |
| 2026-05-05 13:44 | 48.70641 | -123.46653 | 9956 ft | 162 kts | 328° |
| 2026-05-05 13:44 | 48.71599 | -123.47552 | 9958 ft | 162 kts | 328° |
| 2026-05-05 13:44 | 48.72555 | -123.48449 | 9953 ft | 161 kts | 328° |
| 2026-05-05 13:45 | 48.73500 | -123.49330 | 9959 ft | 162 kts | 329° |
| 2026-05-05 13:45 | 48.74465 | -123.50207 | 9960 ft | 162 kts | 329° |
| 2026-05-05 13:45 | 48.75432 | -123.51079 | 9964 ft | 162 kts | 330° |
| 2026-05-05 13:45 | 48.76401 | -123.51951 | 9965 ft | 162 kts | 329° |
| 2026-05-05 13:46 | 48.77369 | -123.52823 | 9961 ft | 162 kts | 329° |
| 2026-05-05 13:46 | 48.78338 | -123.53699 | 9966 ft | 163 kts | 329° |
| 2026-05-05 13:46 | 48.79311 | -123.54580 | 9967 ft | 163 kts | 329° |
| 2026-05-05 13:46 | 48.80283 | -123.55461 | 9961 ft | 163 kts | 329° |
| 2026-05-05 13:47 | 48.81258 | -123.56347 | 9960 ft | 163 kts | 329° |
| 2026-05-05 13:47 | 48.82231 | -123.57232 | 9962 ft | 162 kts | 329° |
| 2026-05-05 13:47 | 48.83199 | -123.58113 | 9967 ft | 162 kts | 329° |
| 2026-05-05 13:47 | 48.84166 | -123.58994 | 9964 ft | 162 kts | 329° |
| 2026-05-05 13:48 | 48.85136 | -123.59876 | 9965 ft | 163 kts | 329° |
| 2026-05-05 13:48 | 48.86105 | -123.60759 | 9964 ft | 163 kts | 329° |
| 2026-05-05 13:48 | 48.87076 | -123.61645 | 9963 ft | 163 kts | 329° |
| 2026-05-05 13:48 | 48.88049 | -123.62531 | 9963 ft | 163 kts | 329° |
| 2026-05-05 13:49 | 48.89021 | -123.63417 | 9961 ft | 163 kts | 329° |
| 2026-05-05 13:49 | 48.89991 | -123.64301 | 9961 ft | 162 kts | 329° |
| 2026-05-05 13:49 | 48.90946 | -123.65173 | 9962 ft | 162 kts | 329° |
| 2026-05-05 13:49 | 48.91913 | -123.66057 | 9964 ft | 162 kts | 329° |
| 2026-05-05 13:50 | 48.92878 | -123.66941 | 9970 ft | 162 kts | 328° |
| 2026-05-05 13:50 | 48.93767 | -123.67992 | 9967 ft | 162 kts | 316° |
| 2026-05-05 13:50 | 48.94545 | -123.69244 | 9970 ft | 163 kts | 312° |
| 2026-05-05 13:50 | 48.95295 | -123.70536 | 9969 ft | 163 kts | 311° |
| 2026-05-05 13:51 | 48.96036 | -123.71838 | 9971 ft | 163 kts | 311° |
| 2026-05-05 13:51 | 48.96778 | -123.73140 | 9972 ft | 163 kts | 311° |
| 2026-05-05 13:51 | 48.97270 | -123.73999 | 9968 ft | 163 kts | 311° |
| 2026-05-05 13:51 | 48.98015 | -123.75296 | 9966 ft | 163 kts | 312° |
| 2026-05-05 13:52 | 48.98764 | -123.76592 | 9966 ft | 163 kts | 312° |
| 2026-05-05 13:52 | 48.99513 | -123.77886 | 9966 ft | 163 kts | 312° |
| 2026-05-05 13:52 | 49.00514 | -123.79610 | 9968 ft | 162 kts | 312° |
| 2026-05-05 13:52 | 49.01011 | -123.80466 | 9965 ft | 162 kts | 312° |
| 2026-05-05 13:53 | 49.01760 | -123.81756 | 9966 ft | 162 kts | 312° |
| 2026-05-05 13:53 | 49.02509 | -123.83047 | 9971 ft | 163 kts | 312° |
| 2026-05-05 13:53 | 49.03256 | -123.84335 | 9971 ft | 162 kts | 312° |
| 2026-05-05 13:53 | 49.04004 | -123.85625 | 9968 ft | 162 kts | 312° |
| 2026-05-05 13:54 | 49.04753 | -123.86917 | 9970 ft | 163 kts | 312° |
| 2026-05-05 13:54 | 49.05493 | -123.88197 | 9971 ft | 163 kts | 312° |
| 2026-05-05 13:54 | 49.06244 | -123.89495 | 9969 ft | 163 kts | 311° |
| 2026-05-05 13:54 | 49.06994 | -123.90794 | 9969 ft | 163 kts | 311° |
| 2026-05-05 13:55 | 49.07746 | -123.92095 | 9965 ft | 164 kts | 311° |
| 2026-05-05 13:55 | 49.08499 | -123.93397 | 9966 ft | 164 kts | 311° |
| 2026-05-05 13:55 | 49.09252 | -123.94701 | 9965 ft | 164 kts | 311° |
| 2026-05-05 13:55 | 49.10005 | -123.96005 | 9967 ft | 164 kts | 311° |
| 2026-05-05 13:56 | 49.10757 | -123.97309 | 9968 ft | 164 kts | 311° |
| 2026-05-05 13:56 | 49.11510 | -123.98615 | 9966 ft | 164 kts | 311° |
| 2026-05-05 13:56 | 49.12263 | -123.99922 | 9966 ft | 164 kts | 311° |
| 2026-05-05 13:56 | 49.13017 | -124.01231 | 9965 ft | 164 kts | 311° |
| 2026-05-05 13:57 | 49.13770 | -124.02537 | 9972 ft | 164 kts | 311° |
| 2026-05-05 13:57 | 49.14523 | -124.03846 | 9972 ft | 164 kts | 311° |
| 2026-05-05 13:57 | 49.15275 | -124.05156 | 9969 ft | 164 kts | 311° |
| 2026-05-05 13:57 | 49.16030 | -124.06469 | 9967 ft | 164 kts | 311° |
| 2026-05-05 13:58 | 49.16786 | -124.07784 | 9968 ft | 165 kts | 311° |
| 2026-05-05 13:58 | 49.17543 | -124.09102 | 9968 ft | 165 kts | 311° |
| 2026-05-05 13:58 | 49.18292 | -124.10404 | 9967 ft | 165 kts | 311° |
| 2026-05-05 13:58 | 49.19049 | -124.11724 | 9965 ft | 165 kts | 311° |
| 2026-05-05 13:59 | 49.20559 | -124.14359 | 9962 ft | 165 kts | 311° |
| 2026-05-05 13:59 | 49.21312 | -124.15675 | 9959 ft | 164 kts | 311° |
| 2026-05-05 14:00 | 49.22818 | -124.18304 | 9961 ft | 164 kts | 311° |
| 2026-05-05 14:00 | 49.23559 | -124.19633 | 9964 ft | 164 kts | 311° |
| 2026-05-05 14:00 | 49.24299 | -124.20932 | 9959 ft | 164 kts | 312° |
| 2026-05-05 14:00 | 49.25053 | -124.22237 | 9964 ft | 164 kts | 312° |
| 2026-05-05 14:01 | 49.25807 | -124.23545 | 9962 ft | 164 kts | 312° |
| 2026-05-05 14:01 | 49.26582 | -124.24824 | 9957 ft | 164 kts | 316° |
| 2026-05-05 14:01 | 49.27412 | -124.26014 | 9962 ft | 163 kts | 318° |
| 2026-05-05 14:01 | 49.28245 | -124.27197 | 9960 ft | 164 kts | 317° |
| 2026-05-05 14:02 | 49.29078 | -124.28390 | 9960 ft | 164 kts | 317° |
| 2026-05-05 14:02 | 49.29907 | -124.29586 | 9960 ft | 163 kts | 317° |
| 2026-05-05 14:02 | 49.30734 | -124.30775 | 9959 ft | 163 kts | 318° |
| 2026-05-05 14:02 | 49.31565 | -124.31966 | 9958 ft | 163 kts | 317° |
| 2026-05-05 14:03 | 49.32397 | -124.33159 | 9965 ft | 164 kts | 317° |
| 2026-05-05 14:03 | 49.33226 | -124.34354 | 9957 ft | 164 kts | 317° |
| 2026-05-05 14:03 | 49.34056 | -124.35551 | 9958 ft | 164 kts | 317° |
| 2026-05-05 14:03 | 49.34886 | -124.36745 | 9954 ft | 164 kts | 317° |
| 2026-05-05 14:04 | 49.35718 | -124.37941 | 9960 ft | 164 kts | 317° |
| 2026-05-05 14:04 | 49.36548 | -124.39138 | 9958 ft | 163 kts | 318° |
| 2026-05-05 14:04 | 49.37375 | -124.40331 | 9954 ft | 163 kts | 317° |
| 2026-05-05 14:04 | 49.38201 | -124.41520 | 9963 ft | 163 kts | 318° |
| 2026-05-05 14:05 | 49.39022 | -124.42701 | 9954 ft | 162 kts | 317° |
| 2026-05-05 14:05 | 49.39838 | -124.43877 | 9955 ft | 163 kts | 317° |
| 2026-05-05 14:05 | 49.40662 | -124.45067 | 9953 ft | 162 kts | 317° |
| 2026-05-05 14:05 | 49.41484 | -124.46257 | 9962 ft | 162 kts | 317° |
| 2026-05-05 14:06 | 49.42304 | -124.47442 | 9955 ft | 162 kts | 318° |
| 2026-05-05 14:06 | 49.43124 | -124.48629 | 9957 ft | 162 kts | 317° |
| 2026-05-05 14:06 | 49.43943 | -124.49817 | 9955 ft | 162 kts | 317° |
| 2026-05-05 14:06 | 49.44763 | -124.51010 | 9956 ft | 162 kts | 318° |
| 2026-05-05 14:07 | 49.45585 | -124.52198 | 9954 ft | 162 kts | 317° |
| 2026-05-05 14:07 | 49.46406 | -124.53381 | 9956 ft | 162 kts | 317° |
| 2026-05-05 14:07 | 49.47228 | -124.54566 | 9957 ft | 162 kts | 317° |
| 2026-05-05 14:07 | 49.48047 | -124.55759 | 9954 ft | 162 kts | 317° |
| 2026-05-05 14:08 | 49.48868 | -124.56952 | 9958 ft | 162 kts | 318° |
| 2026-05-05 14:08 | 49.49689 | -124.58140 | 9955 ft | 162 kts | 317° |
| 2026-05-05 14:08 | 49.50499 | -124.59316 | 9956 ft | 163 kts | 317° |
| 2026-05-05 14:08 | 49.51321 | -124.60511 | 9957 ft | 163 kts | 317° |
| 2026-05-05 14:09 | 49.52141 | -124.61705 | 9953 ft | 162 kts | 317° |
| 2026-05-05 14:09 | 49.52960 | -124.62896 | 9957 ft | 162 kts | 317° |
| 2026-05-05 14:09 | 49.53779 | -124.64084 | 9956 ft | 162 kts | 317° |
| 2026-05-05 14:09 | 49.54599 | -124.65275 | 9956 ft | 162 kts | 317° |
| 2026-05-05 14:10 | 49.55422 | -124.66465 | 9953 ft | 162 kts | 318° |
| 2026-05-05 14:10 | 49.56240 | -124.67656 | 9958 ft | 162 kts | 317° |
| 2026-05-05 14:10 | 49.57055 | -124.68852 | 9956 ft | 162 kts | 317° |
| 2026-05-05 14:10 | 49.57872 | -124.70049 | 9960 ft | 162 kts | 317° |
| 2026-05-05 14:11 | 49.58691 | -124.71242 | 9957 ft | 162 kts | 317° |
| 2026-05-05 14:11 | 49.59513 | -124.72438 | 9957 ft | 162 kts | 317° |
| 2026-05-05 14:11 | 49.60332 | -124.73636 | 9962 ft | 162 kts | 317° |
| 2026-05-05 14:11 | 49.61142 | -124.74822 | 9957 ft | 163 kts | 317° |
| 2026-05-05 14:12 | 49.61963 | -124.76024 | 9972 ft | 163 kts | 317° |
| 2026-05-05 14:12 | 49.62784 | -124.77223 | 9976 ft | 163 kts | 317° |
| 2026-05-05 14:12 | 49.63604 | -124.78424 | 9975 ft | 163 kts | 317° |
| 2026-05-05 14:12 | 49.64424 | -124.79624 | 9975 ft | 162 kts | 317° |
| 2026-05-05 14:13 | 49.65244 | -124.80826 | 9976 ft | 163 kts | 317° |
| 2026-05-05 14:13 | 49.66065 | -124.82029 | 9976 ft | 162 kts | 317° |
| 2026-05-05 14:13 | 49.66883 | -124.83228 | 9979 ft | 162 kts | 317° |
| 2026-05-05 14:13 | 49.67701 | -124.84428 | 9977 ft | 162 kts | 317° |
| 2026-05-05 14:14 | 49.68518 | -124.85629 | 9977 ft | 162 kts | 317° |
| 2026-05-05 14:14 | 49.69337 | -124.86831 | 9976 ft | 162 kts | 317° |
| 2026-05-05 14:14 | 49.70155 | -124.88034 | 9977 ft | 162 kts | 317° |
| 2026-05-05 14:14 | 49.70974 | -124.89238 | 9977 ft | 162 kts | 317° |
| 2026-05-05 14:15 | 49.71779 | -124.90430 | 9980 ft | 163 kts | 316° |
| 2026-05-05 14:15 | 49.72579 | -124.91667 | 9978 ft | 163 kts | 315° |
| 2026-05-05 14:15 | 49.73372 | -124.92915 | 9980 ft | 163 kts | 315° |
| 2026-05-05 14:15 | 49.74165 | -124.94168 | 9976 ft | 163 kts | 315° |
| 2026-05-05 14:16 | 49.74956 | -124.95417 | 9977 ft | 163 kts | 315° |
| 2026-05-05 14:16 | 49.75749 | -124.96666 | 9978 ft | 163 kts | 315° |
| 2026-05-05 14:16 | 49.76544 | -124.97915 | 9976 ft | 163 kts | 315° |
| 2026-05-05 14:16 | 49.77339 | -124.99164 | 9976 ft | 163 kts | 315° |
| 2026-05-05 14:17 | 49.78136 | -125.00412 | 9976 ft | 163 kts | 315° |
| 2026-05-05 14:17 | 49.78934 | -125.01662 | 9975 ft | 163 kts | 315° |
| 2026-05-05 14:17 | 49.79728 | -125.02909 | 9974 ft | 163 kts | 315° |
| 2026-05-05 14:17 | 49.80524 | -125.04157 | 9973 ft | 163 kts | 315° |
| 2026-05-05 14:18 | 49.81318 | -125.05404 | 9972 ft | 163 kts | 315° |
| 2026-05-05 14:18 | 49.82113 | -125.06652 | 9971 ft | 163 kts | 315° |
| 2026-05-05 14:18 | 49.82908 | -125.07901 | 9972 ft | 163 kts | 315° |
| 2026-05-05 14:18 | 49.83692 | -125.09133 | 9968 ft | 163 kts | 315° |
| 2026-05-05 14:19 | 49.84489 | -125.10386 | 9969 ft | 163 kts | 315° |
| 2026-05-05 14:19 | 49.85286 | -125.11640 | 9967 ft | 163 kts | 315° |
| 2026-05-05 14:19 | 49.86083 | -125.12895 | 9966 ft | 163 kts | 315° |
| 2026-05-05 14:19 | 49.86879 | -125.14148 | 9965 ft | 163 kts | 315° |
| 2026-05-05 14:20 | 49.87675 | -125.15402 | 9963 ft | 163 kts | 315° |
| 2026-05-05 14:20 | 49.88470 | -125.16656 | 9963 ft | 163 kts | 315° |
| 2026-05-05 14:20 | 49.89265 | -125.17911 | 9961 ft | 163 kts | 315° |
| 2026-05-05 14:20 | 49.90060 | -125.19165 | 9960 ft | 163 kts | 315° |
| 2026-05-05 14:21 | 49.90854 | -125.20419 | 9957 ft | 163 kts | 315° |
| 2026-05-05 14:21 | 49.91638 | -125.21658 | 9956 ft | 163 kts | 315° |
| 2026-05-05 14:21 | 49.92431 | -125.22911 | 9967 ft | 163 kts | 315° |
| 2026-05-05 14:21 | 49.93225 | -125.24167 | 9968 ft | 163 kts | 315° |
| 2026-05-05 14:22 | 49.94017 | -125.25420 | 9971 ft | 163 kts | 315° |
| 2026-05-05 14:22 | 49.94810 | -125.26674 | 9973 ft | 163 kts | 315° |
| 2026-05-05 14:22 | 49.95603 | -125.27930 | 9972 ft | 163 kts | 315° |
| 2026-05-05 14:22 | 49.96396 | -125.29185 | 9974 ft | 163 kts | 315° |
| 2026-05-05 14:23 | 49.97189 | -125.30444 | 9967 ft | 163 kts | 315° |
| 2026-05-05 14:23 | 49.97982 | -125.31700 | 9967 ft | 163 kts | 315° |
| 2026-05-05 14:23 | 49.98775 | -125.32958 | 9967 ft | 163 kts | 315° |
| 2026-05-05 14:23 | 49.99566 | -125.34215 | 9967 ft | 163 kts | 315° |
| 2026-05-05 14:24 | 50.00358 | -125.35473 | 9970 ft | 163 kts | 315° |
| 2026-05-05 14:24 | 50.01151 | -125.36730 | 9968 ft | 163 kts | 315° |
| 2026-05-05 14:24 | 50.01949 | -125.37977 | 9967 ft | 163 kts | 315° |
| 2026-05-05 14:24 | 50.02748 | -125.39222 | 9967 ft | 163 kts | 315° |
| 2026-05-05 14:25 | 50.03539 | -125.40451 | 9966 ft | 163 kts | 315° |
| 2026-05-05 14:25 | 50.04338 | -125.41694 | 9965 ft | 162 kts | 315° |
| 2026-05-05 14:25 | 50.05136 | -125.42937 | 9966 ft | 162 kts | 315° |
| 2026-05-05 14:25 | 50.05934 | -125.44181 | 9966 ft | 162 kts | 315° |
| 2026-05-05 14:26 | 50.06732 | -125.45429 | 9966 ft | 163 kts | 315° |
| 2026-05-05 14:26 | 50.07532 | -125.46678 | 9965 ft | 163 kts | 315° |
| 2026-05-05 14:26 | 50.08331 | -125.47927 | 9964 ft | 163 kts | 315° |
| 2026-05-05 14:26 | 50.09131 | -125.49179 | 9963 ft | 163 kts | 315° |
| 2026-05-05 14:27 | 50.09922 | -125.50419 | 9965 ft | 163 kts | 315° |
| 2026-05-05 14:27 | 50.10722 | -125.51671 | 9964 ft | 163 kts | 315° |
| 2026-05-05 14:27 | 50.11520 | -125.52923 | 9963 ft | 163 kts | 315° |
| 2026-05-05 14:27 | 50.12319 | -125.54176 | 9964 ft | 163 kts | 315° |
| 2026-05-05 14:28 | 50.13115 | -125.55426 | 9961 ft | 162 kts | 315° |
| 2026-05-05 14:28 | 50.13909 | -125.56674 | 9964 ft | 162 kts | 315° |
| 2026-05-05 14:28 | 50.14705 | -125.57924 | 9961 ft | 162 kts | 315° |
| 2026-05-05 14:28 | 50.15499 | -125.59172 | 9959 ft | 162 kts | 315° |
| 2026-05-05 14:29 | 50.16292 | -125.60421 | 9963 ft | 162 kts | 315° |
| 2026-05-05 14:29 | 50.17085 | -125.61668 | 9961 ft | 162 kts | 315° |
| 2026-05-05 14:29 | 50.17876 | -125.62912 | 9965 ft | 162 kts | 315° |
| 2026-05-05 14:29 | 50.18667 | -125.64162 | 9960 ft | 162 kts | 315° |
| 2026-05-05 14:30 | 50.19456 | -125.65408 | 9966 ft | 161 kts | 315° |
| 2026-05-05 14:30 | 50.20248 | -125.66654 | 9966 ft | 162 kts | 315° |
| 2026-05-05 14:30 | 50.21028 | -125.67882 | 9968 ft | 162 kts | 315° |
| 2026-05-05 14:30 | 50.21821 | -125.69132 | 9968 ft | 162 kts | 315° |
| 2026-05-05 14:31 | 50.22614 | -125.70383 | 9966 ft | 162 kts | 315° |
| 2026-05-05 14:31 | 50.23408 | -125.71636 | 9964 ft | 162 kts | 315° |
| 2026-05-05 14:31 | 50.24202 | -125.72892 | 9962 ft | 162 kts | 315° |
| 2026-05-05 14:31 | 50.24992 | -125.74142 | 9960 ft | 162 kts | 315° |
| 2026-05-05 14:32 | 50.25781 | -125.75389 | 9960 ft | 161 kts | 315° |
| 2026-05-05 14:32 | 50.26567 | -125.76633 | 9962 ft | 161 kts | 315° |
| 2026-05-05 14:32 | 50.27352 | -125.77877 | 9965 ft | 161 kts | 315° |
| 2026-05-05 14:32 | 50.28138 | -125.79121 | 9964 ft | 161 kts | 315° |
| 2026-05-05 14:33 | 50.28922 | -125.80363 | 9963 ft | 160 kts | 315° |
| 2026-05-05 14:33 | 50.29701 | -125.81600 | 9971 ft | 160 kts | 315° |
| 2026-05-05 14:33 | 50.30484 | -125.82841 | 9963 ft | 160 kts | 315° |
| 2026-05-05 14:33 | 50.31264 | -125.84083 | 9971 ft | 160 kts | 315° |
| 2026-05-05 14:34 | 50.32047 | -125.85328 | 9968 ft | 160 kts | 315° |
| 2026-05-05 14:34 | 50.32820 | -125.86557 | 9967 ft | 160 kts | 315° |
| 2026-05-05 14:34 | 50.33603 | -125.87801 | 9969 ft | 161 kts | 315° |
| 2026-05-05 14:34 | 50.34388 | -125.89050 | 9970 ft | 161 kts | 315° |
| 2026-05-05 14:35 | 50.35174 | -125.90301 | 9971 ft | 162 kts | 315° |
| 2026-05-05 14:35 | 50.35967 | -125.91561 | 9970 ft | 162 kts | 315° |
| 2026-05-05 14:35 | 50.36759 | -125.92821 | 9966 ft | 162 kts | 315° |
| 2026-05-05 14:35 | 50.37549 | -125.94081 | 9966 ft | 162 kts | 315° |
| 2026-05-05 14:36 | 50.38339 | -125.95343 | 9967 ft | 162 kts | 315° |
| 2026-05-05 14:36 | 50.39132 | -125.96606 | 9960 ft | 162 kts | 315° |
| 2026-05-05 14:36 | 50.39909 | -125.97867 | 9964 ft | 160 kts | 314° |
| 2026-05-05 14:36 | 50.40690 | -125.99113 | 9968 ft | 160 kts | 315° |
| 2026-05-05 14:37 | 50.41476 | -126.00359 | 9971 ft | 161 kts | 315° |
| 2026-05-05 14:37 | 50.42266 | -126.01617 | 9977 ft | 162 kts | 315° |
| 2026-05-05 14:37 | 50.43059 | -126.02881 | 9975 ft | 163 kts | 315° |
| 2026-05-05 14:37 | 50.43855 | -126.04151 | 9967 ft | 163 kts | 315° |
| 2026-05-05 14:38 | 50.44381 | -126.04994 | 9968 ft | 163 kts | 315° |
| 2026-05-05 14:38 | 50.45157 | -126.06283 | 9967 ft | 163 kts | 309° |
| 2026-05-05 14:38 | 50.45693 | -126.07842 | 9969 ft | 164 kts | 292° |
| 2026-05-05 14:38 | 50.46041 | -126.09543 | 9969 ft | 164 kts | 288° |
| 2026-05-05 14:39 | 50.46443 | -126.11834 | 9969 ft | 164 kts | 287° |
| 2026-05-05 14:39 | 50.46641 | -126.13003 | 9966 ft | 164 kts | 287° |
| 2026-05-05 14:39 | 50.46936 | -126.14727 | 9963 ft | 163 kts | 287° |
| 2026-05-05 14:39 | 50.47235 | -126.16446 | 9966 ft | 163 kts | 287° |
| 2026-05-05 14:40 | 50.47538 | -126.18159 | 9967 ft | 163 kts | 288° |
| 2026-05-05 14:40 | 50.47840 | -126.19849 | 9969 ft | 163 kts | 288° |
| 2026-05-05 14:40 | 50.48149 | -126.21564 | 9969 ft | 163 kts | 288° |
| 2026-05-05 14:40 | 50.48458 | -126.23276 | 9969 ft | 163 kts | 288° |
| 2026-05-05 14:41 | 50.48769 | -126.24988 | 9972 ft | 163 kts | 288° |
| 2026-05-05 14:41 | 50.49081 | -126.26703 | 9972 ft | 163 kts | 288° |
| 2026-05-05 14:41 | 50.49391 | -126.28416 | 9972 ft | 163 kts | 288° |
| 2026-05-05 14:41 | 50.49700 | -126.30125 | 9974 ft | 163 kts | 288° |
| 2026-05-05 14:42 | 50.50011 | -126.31839 | 9972 ft | 163 kts | 288° |
| 2026-05-05 14:42 | 50.50320 | -126.33549 | 9974 ft | 163 kts | 288° |
| 2026-05-05 14:42 | 50.50629 | -126.35265 | 9975 ft | 163 kts | 288° |
| 2026-05-05 14:42 | 50.50935 | -126.36959 | 9975 ft | 163 kts | 288° |
| 2026-05-05 14:43 | 50.51244 | -126.38675 | 9978 ft | 163 kts | 288° |
| 2026-05-05 14:43 | 50.51554 | -126.40395 | 9976 ft | 163 kts | 288° |
| 2026-05-05 14:43 | 50.51864 | -126.42115 | 9976 ft | 163 kts | 288° |
| 2026-05-05 14:43 | 50.52172 | -126.43833 | 9975 ft | 163 kts | 288° |
| 2026-05-05 14:44 | 50.52482 | -126.45553 | 9971 ft | 163 kts | 288° |
| 2026-05-05 14:44 | 50.52789 | -126.47269 | 9973 ft | 163 kts | 288° |
| 2026-05-05 14:44 | 50.53096 | -126.48985 | 9977 ft | 163 kts | 288° |
| 2026-05-05 14:44 | 50.53402 | -126.50707 | 9977 ft | 164 kts | 288° |
| 2026-05-05 14:45 | 50.53712 | -126.52430 | 9975 ft | 164 kts | 288° |
| 2026-05-05 14:45 | 50.54021 | -126.54155 | 9976 ft | 164 kts | 288° |
| 2026-05-05 14:45 | 50.54326 | -126.55884 | 9979 ft | 164 kts | 288° |
| 2026-05-05 14:45 | 50.54629 | -126.57618 | 9980 ft | 164 kts | 287° |
| 2026-05-05 14:46 | 50.54925 | -126.59355 | 9979 ft | 165 kts | 287° |
| 2026-05-05 14:46 | 50.55235 | -126.61084 | 9977 ft | 164 kts | 289° |
| 2026-05-05 14:46 | 50.55568 | -126.62800 | 9978 ft | 164 kts | 289° |
| 2026-05-05 14:46 | 50.55899 | -126.64513 | 9981 ft | 164 kts | 289° |
| 2026-05-05 14:47 | 50.56226 | -126.66234 | 9984 ft | 165 kts | 289° |
| 2026-05-05 14:47 | 50.56548 | -126.67966 | 9979 ft | 165 kts | 288° |
| 2026-05-05 14:47 | 50.56860 | -126.69673 | 9978 ft | 165 kts | 288° |
| 2026-05-05 14:47 | 50.57174 | -126.71407 | 9981 ft | 165 kts | 288° |
| 2026-05-05 14:48 | 50.57484 | -126.73144 | 9981 ft | 165 kts | 288° |
| 2026-05-05 14:48 | 50.57793 | -126.74881 | 9981 ft | 165 kts | 288° |
| 2026-05-05 14:48 | 50.58101 | -126.76625 | 9983 ft | 165 kts | 288° |
| 2026-05-05 14:48 | 50.58408 | -126.78365 | 9982 ft | 165 kts | 288° |
| 2026-05-05 14:49 | 50.58714 | -126.80104 | 9980 ft | 165 kts | 288° |
| 2026-05-05 14:49 | 50.59019 | -126.81836 | 9981 ft | 164 kts | 288° |
| 2026-05-05 14:49 | 50.59323 | -126.83569 | 9982 ft | 164 kts | 288° |
| 2026-05-05 14:49 | 50.59627 | -126.85300 | 9982 ft | 164 kts | 288° |
| 2026-05-05 14:50 | 50.59930 | -126.87029 | 9985 ft | 164 kts | 288° |
| 2026-05-05 14:50 | 50.60233 | -126.88759 | 9986 ft | 164 kts | 288° |
| 2026-05-05 14:50 | 50.60537 | -126.90489 | 9985 ft | 164 kts | 288° |
| 2026-05-05 14:50 | 50.60840 | -126.92220 | 9986 ft | 164 kts | 288° |
| 2026-05-05 14:51 | 50.61142 | -126.93953 | 9979 ft | 164 kts | 287° |
| 2026-05-05 14:51 | 50.61442 | -126.95683 | 9983 ft | 164 kts | 287° |
| 2026-05-05 14:51 | 50.61738 | -126.97397 | 9985 ft | 164 kts | 287° |
| 2026-05-05 14:51 | 50.62039 | -126.99137 | 9986 ft | 165 kts | 287° |
| 2026-05-05 14:52 | 50.62341 | -127.00878 | 9988 ft | 165 kts | 287° |
| 2026-05-05 14:52 | 50.62642 | -127.02620 | 9988 ft | 165 kts | 287° |
| 2026-05-05 14:52 | 50.62944 | -127.04366 | 9987 ft | 165 kts | 287° |
| 2026-05-05 14:52 | 50.63247 | -127.06118 | 9987 ft | 165 kts | 287° |
| 2026-05-05 14:53 | 50.63549 | -127.07862 | 9982 ft | 165 kts | 287° |
| 2026-05-05 14:53 | 50.63850 | -127.09604 | 9987 ft | 165 kts | 287° |
| 2026-05-05 14:53 | 50.64149 | -127.11352 | 9988 ft | 165 kts | 287° |
| 2026-05-05 14:53 | 50.64450 | -127.13106 | 9993 ft | 166 kts | 287° |
| 2026-05-05 14:54 | 50.64752 | -127.14861 | 9990 ft | 166 kts | 287° |
| 2026-05-05 14:54 | 50.65055 | -127.16617 | 9987 ft | 166 kts | 287° |
| 2026-05-05 14:54 | 50.65357 | -127.18377 | 9986 ft | 166 kts | 287° |
| 2026-05-05 14:54 | 50.65654 | -127.20113 | 9986 ft | 166 kts | 287° |
| 2026-05-05 14:55 | 50.65954 | -127.21868 | 9984 ft | 166 kts | 287° |
| 2026-05-05 14:55 | 50.66254 | -127.23624 | 9985 ft | 166 kts | 287° |
| 2026-05-05 14:55 | 50.66553 | -127.25376 | 9987 ft | 166 kts | 287° |
| 2026-05-05 14:55 | 50.66853 | -127.27133 | 9987 ft | 166 kts | 287° |
| 2026-05-05 14:56 | 50.67152 | -127.28888 | 9989 ft | 166 kts | 287° |
| 2026-05-05 14:56 | 50.67451 | -127.30643 | 9988 ft | 166 kts | 287° |
| 2026-05-05 14:56 | 50.67750 | -127.32398 | 9988 ft | 166 kts | 287° |
| 2026-05-05 14:56 | 50.68049 | -127.34156 | 9988 ft | 166 kts | 287° |
| 2026-05-05 14:57 | 50.68354 | -127.35909 | 9985 ft | 165 kts | 290° |
| 2026-05-05 14:57 | 50.68958 | -127.37415 | 9987 ft | 163 kts | 316° |
| 2026-05-05 14:57 | 50.69783 | -127.38647 | 9988 ft | 164 kts | 316° |
| 2026-05-05 14:57 | 50.70591 | -127.39916 | 9987 ft | 164 kts | 315° |
| 2026-05-05 14:58 | 50.71393 | -127.41199 | 9989 ft | 164 kts | 315° |
| 2026-05-05 14:58 | 50.72183 | -127.42466 | 9986 ft | 164 kts | 315° |
| 2026-05-05 14:58 | 50.72984 | -127.43747 | 9989 ft | 164 kts | 315° |
| 2026-05-05 14:58 | 50.73789 | -127.45031 | 9988 ft | 164 kts | 315° |
| 2026-05-05 14:59 | 50.74593 | -127.46311 | 9984 ft | 164 kts | 315° |
| 2026-05-05 14:59 | 50.75397 | -127.47591 | 9986 ft | 164 kts | 315° |
| 2026-05-05 14:59 | 50.76201 | -127.48869 | 9987 ft | 164 kts | 315° |
| 2026-05-05 14:59 | 50.77005 | -127.50149 | 9995 ft | 164 kts | 315° |
| 2026-05-05 15:00 | 50.77809 | -127.51428 | 9994 ft | 164 kts | 315° |
| 2026-05-05 15:00 | 50.78343 | -127.52276 | 9995 ft | 164 kts | 315° |
| 2026-05-05 15:00 | 50.79418 | -127.53989 | 10000 ft | 164 kts | 315° |
| 2026-05-05 15:00 | 50.80221 | -127.55271 | 9998 ft | 164 kts | 315° |
| 2026-05-05 15:01 | 50.81024 | -127.56557 | 9999 ft | 164 kts | 315° |
| 2026-05-05 15:01 | 50.81830 | -127.57844 | 9999 ft | 165 kts | 315° |
| 2026-05-05 15:01 | 50.82637 | -127.59132 | 9998 ft | 165 kts | 315° |
| 2026-05-05 15:01 | 50.83434 | -127.60404 | 9997 ft | 165 kts | 315° |
| 2026-05-05 15:02 | 50.84242 | -127.61695 | 9996 ft | 165 kts | 315° |
| 2026-05-05 15:02 | 50.85051 | -127.62987 | 9997 ft | 165 kts | 315° |
| 2026-05-05 15:02 | 50.85860 | -127.64280 | 9998 ft | 165 kts | 315° |
| 2026-05-05 15:02 | 50.86668 | -127.65574 | 9997 ft | 165 kts | 315° |
| 2026-05-05 15:03 | 50.87477 | -127.66869 | 9997 ft | 165 kts | 315° |
| 2026-05-05 15:03 | 50.88286 | -127.68166 | 9996 ft | 165 kts | 315° |
| 2026-05-05 15:03 | 50.89095 | -127.69463 | 9998 ft | 165 kts | 315° |
| 2026-05-05 15:03 | 50.89904 | -127.70761 | 9999 ft | 165 kts | 315° |
| 2026-05-05 15:04 | 50.90709 | -127.72053 | 10001 ft | 166 kts | 315° |
| 2026-05-05 15:04 | 50.91520 | -127.73355 | 9998 ft | 166 kts | 315° |
| 2026-05-05 15:04 | 50.92331 | -127.74658 | 9996 ft | 166 kts | 315° |
| 2026-05-05 15:04 | 50.93140 | -127.75960 | 9996 ft | 166 kts | 315° |
| 2026-05-05 15:05 | 50.94744 | -127.78540 | 9997 ft | 165 kts | 315° |
| 2026-05-05 15:05 | 50.95551 | -127.79840 | 9997 ft | 165 kts | 315° |
| 2026-05-05 15:05 | 50.96356 | -127.81137 | 9997 ft | 165 kts | 315° |
| 2026-05-05 15:06 | 50.97162 | -127.82437 | 9997 ft | 165 kts | 315° |
| 2026-05-05 15:06 | 50.97969 | -127.83738 | 9997 ft | 165 kts | 315° |
| 2026-05-05 15:06 | 50.98775 | -127.85037 | 9997 ft | 165 kts | 314° |
| 2026-05-05 15:06 | 50.99581 | -127.86339 | 9998 ft | 165 kts | 314° |
| 2026-05-05 15:07 | 51.00387 | -127.87642 | 9996 ft | 165 kts | 314° |
| 2026-05-05 15:07 | 51.01193 | -127.88944 | 10000 ft | 166 kts | 314° |
| 2026-05-05 15:07 | 51.02001 | -127.90251 | 9995 ft | 165 kts | 314° |
| 2026-05-05 15:07 | 51.02809 | -127.91558 | 9995 ft | 165 kts | 314° |
| 2026-05-05 15:08 | 51.03616 | -127.92864 | 9998 ft | 166 kts | 314° |
| 2026-05-05 15:08 | 51.04422 | -127.94169 | 9997 ft | 166 kts | 314° |
| 2026-05-05 15:08 | 51.05228 | -127.95475 | 9995 ft | 165 kts | 314° |
| 2026-05-05 15:08 | 51.06024 | -127.96766 | 9995 ft | 166 kts | 314° |
| 2026-05-05 15:09 | 51.06829 | -127.98072 | 9993 ft | 166 kts | 314° |
| 2026-05-05 15:09 | 51.07637 | -127.99384 | 9993 ft | 166 kts | 314° |
| 2026-05-05 15:09 | 51.08445 | -128.00695 | 9993 ft | 166 kts | 314° |
| 2026-05-05 15:09 | 51.09252 | -128.02005 | 9992 ft | 166 kts | 314° |
| 2026-05-05 15:10 | 51.10058 | -128.03317 | 9995 ft | 166 kts | 314° |
| 2026-05-05 15:10 | 51.10864 | -128.04627 | 9995 ft | 166 kts | 314° |
| 2026-05-05 15:10 | 51.11670 | -128.05938 | 9995 ft | 166 kts | 314° |
| 2026-05-05 15:10 | 51.12476 | -128.07250 | 9994 ft | 165 kts | 314° |
| 2026-05-05 15:11 | 51.13281 | -128.08562 | 9992 ft | 165 kts | 314° |
| 2026-05-05 15:11 | 51.14086 | -128.09873 | 9995 ft | 166 kts | 314° |
| 2026-05-05 15:11 | 51.14891 | -128.11187 | 9992 ft | 165 kts | 314° |
| 2026-05-05 15:11 | 51.15684 | -128.12480 | 9993 ft | 165 kts | 314° |
| 2026-05-05 15:12 | 51.16487 | -128.13795 | 9995 ft | 165 kts | 313° |
| 2026-05-05 15:12 | 51.17287 | -128.15110 | 9995 ft | 165 kts | 313° |
| 2026-05-05 15:12 | 51.18092 | -128.16424 | 9995 ft | 166 kts | 313° |
| 2026-05-05 15:12 | 51.18897 | -128.17737 | 9995 ft | 166 kts | 314° |
| 2026-05-05 15:13 | 51.19702 | -128.19050 | 9990 ft | 166 kts | 313° |
| 2026-05-05 15:13 | 51.20508 | -128.20366 | 9990 ft | 165 kts | 313° |
| 2026-05-05 15:13 | 51.21311 | -128.21681 | 9990 ft | 165 kts | 313° |
| 2026-05-05 15:13 | 51.22110 | -128.22990 | 9990 ft | 165 kts | 313° |
| 2026-05-05 15:14 | 51.22912 | -128.24305 | 9992 ft | 165 kts | 313° |
| 2026-05-05 15:14 | 51.23716 | -128.25623 | 9992 ft | 165 kts | 313° |
| 2026-05-05 15:14 | 51.24518 | -128.26938 | 9992 ft | 166 kts | 313° |
| 2026-05-05 15:14 | 51.25321 | -128.28259 | 9992 ft | 166 kts | 313° |
| 2026-05-05 15:15 | 51.26116 | -128.29565 | 9993 ft | 166 kts | 313° |
| 2026-05-05 15:15 | 51.26938 | -128.30851 | 10003 ft | 166 kts | 318° |
| 2026-05-05 15:15 | 51.27862 | -128.31951 | 9987 ft | 166 kts | 324° |
| 2026-05-05 15:15 | 51.28809 | -128.33008 | 9994 ft | 166 kts | 324° |
| 2026-05-05 15:16 | 51.29758 | -128.34064 | 9996 ft | 166 kts | 324° |
| 2026-05-05 15:16 | 51.30705 | -128.35118 | 9994 ft | 166 kts | 324° |
| 2026-05-05 15:16 | 51.31653 | -128.36175 | 9987 ft | 166 kts | 324° |
| 2026-05-05 15:16 | 51.32598 | -128.37231 | 9987 ft | 166 kts | 324° |
| 2026-05-05 15:17 | 51.33544 | -128.38289 | 9990 ft | 166 kts | 324° |
| 2026-05-05 15:17 | 51.34490 | -128.39348 | 9990 ft | 166 kts | 324° |
| 2026-05-05 15:17 | 51.35435 | -128.40407 | 9987 ft | 166 kts | 323° |
| 2026-05-05 15:17 | 51.36381 | -128.41472 | 9987 ft | 166 kts | 323° |
| 2026-05-05 15:18 | 51.37328 | -128.42534 | 9989 ft | 166 kts | 323° |
| 2026-05-05 15:18 | 51.38265 | -128.43586 | 9988 ft | 166 kts | 323° |
| 2026-05-05 15:18 | 51.39213 | -128.44651 | 9987 ft | 166 kts | 323° |
| 2026-05-05 15:18 | 51.40161 | -128.45718 | 9987 ft | 166 kts | 323° |
| 2026-05-05 15:19 | 51.41109 | -128.46783 | 9984 ft | 166 kts | 323° |
| 2026-05-05 15:19 | 51.42056 | -128.47850 | 9985 ft | 166 kts | 323° |
| 2026-05-05 15:19 | 51.43003 | -128.48916 | 9986 ft | 166 kts | 323° |
| 2026-05-05 15:19 | 51.43949 | -128.49983 | 9986 ft | 166 kts | 323° |
| 2026-05-05 15:20 | 51.44898 | -128.51053 | 9986 ft | 166 kts | 323° |
| 2026-05-05 15:20 | 51.45843 | -128.52120 | 9986 ft | 166 kts | 323° |
| 2026-05-05 15:20 | 51.46785 | -128.53184 | 9986 ft | 166 kts | 323° |
| 2026-05-05 15:20 | 51.47732 | -128.54253 | 9986 ft | 166 kts | 323° |
| 2026-05-05 15:21 | 51.48665 | -128.55308 | 9984 ft | 166 kts | 323° |
| 2026-05-05 15:21 | 51.49611 | -128.56378 | 9984 ft | 166 kts | 323° |
| 2026-05-05 15:21 | 51.50557 | -128.57447 | 9983 ft | 166 kts | 323° |
| 2026-05-05 15:21 | 51.51504 | -128.58519 | 9983 ft | 166 kts | 323° |
| 2026-05-05 15:22 | 51.52449 | -128.59591 | 9984 ft | 166 kts | 323° |
| 2026-05-05 15:22 | 51.53395 | -128.60662 | 9983 ft | 166 kts | 323° |
| 2026-05-05 15:22 | 51.54341 | -128.61734 | 9983 ft | 166 kts | 323° |
| 2026-05-05 15:22 | 51.55286 | -128.62806 | 9984 ft | 166 kts | 323° |
| 2026-05-05 15:23 | 51.56232 | -128.63880 | 9985 ft | 166 kts | 322° |
| 2026-05-05 15:23 | 51.57175 | -128.64954 | 9984 ft | 166 kts | 322° |
| 2026-05-05 15:23 | 51.58118 | -128.66025 | 9984 ft | 166 kts | 322° |
| 2026-05-05 15:23 | 51.59064 | -128.67100 | 9984 ft | 166 kts | 322° |
| 2026-05-05 15:24 | 51.59997 | -128.68160 | 9986 ft | 166 kts | 322° |
| 2026-05-05 15:24 | 51.60941 | -128.69233 | 9985 ft | 166 kts | 322° |
| 2026-05-05 15:24 | 51.61886 | -128.70309 | 9984 ft | 166 kts | 322° |
| 2026-05-05 15:24 | 51.62830 | -128.71383 | 9983 ft | 166 kts | 322° |
| 2026-05-05 15:25 | 51.63771 | -128.72456 | 9981 ft | 166 kts | 322° |
| 2026-05-05 15:25 | 51.64713 | -128.73530 | 9983 ft | 166 kts | 322° |
| 2026-05-05 15:25 | 51.65655 | -128.74604 | 9983 ft | 166 kts | 322° |
| 2026-05-05 15:25 | 51.66597 | -128.75680 | 9984 ft | 166 kts | 322° |
| 2026-05-05 15:26 | 51.67538 | -128.76754 | 9986 ft | 166 kts | 322° |
| 2026-05-05 15:26 | 51.68480 | -128.77831 | 9985 ft | 166 kts | 322° |
| 2026-05-05 15:26 | 51.69423 | -128.78908 | 9979 ft | 166 kts | 322° |
| 2026-05-05 15:26 | 51.70365 | -128.79986 | 9978 ft | 166 kts | 322° |
| 2026-05-05 15:27 | 51.70990 | -128.80701 | 9978 ft | 166 kts | 322° |
| 2026-05-05 15:27 | 51.71932 | -128.81779 | 9980 ft | 166 kts | 322° |
| 2026-05-05 15:27 | 51.73178 | -128.83206 | 9981 ft | 166 kts | 322° |
| 2026-05-05 15:27 | 51.74119 | -128.84285 | 9981 ft | 166 kts | 322° |
| 2026-05-05 15:28 | 51.75060 | -128.85364 | 9983 ft | 166 kts | 322° |
| 2026-05-05 15:28 | 51.75695 | -128.86093 | 9982 ft | 166 kts | 322° |
| 2026-05-05 15:28 | 51.76626 | -128.87160 | 9981 ft | 166 kts | 322° |
| 2026-05-05 15:28 | 51.77568 | -128.88245 | 9986 ft | 166 kts | 322° |
| 2026-05-05 15:29 | 51.78510 | -128.89328 | 9988 ft | 167 kts | 322° |
| 2026-05-05 15:29 | 51.79455 | -128.90415 | 9985 ft | 167 kts | 322° |
| 2026-05-05 15:29 | 51.80401 | -128.91502 | 9984 ft | 167 kts | 322° |
| 2026-05-05 15:29 | 51.81349 | -128.92593 | 9984 ft | 167 kts | 322° |
| 2026-05-05 15:30 | 51.82294 | -128.93680 | 9981 ft | 167 kts | 322° |
| 2026-05-05 15:30 | 51.83238 | -128.94767 | 9982 ft | 167 kts | 322° |
| 2026-05-05 15:30 | 51.84184 | -128.95857 | 9983 ft | 167 kts | 322° |
| 2026-05-05 15:30 | 51.85128 | -128.96946 | 9983 ft | 167 kts | 322° |
| 2026-05-05 15:31 | 51.86073 | -128.98036 | 9981 ft | 167 kts | 322° |
| 2026-05-05 15:31 | 51.87016 | -128.99124 | 9981 ft | 167 kts | 322° |
| 2026-05-05 15:31 | 51.87960 | -129.00215 | 9981 ft | 167 kts | 322° |
| 2026-05-05 15:31 | 51.88905 | -129.01306 | 9981 ft | 167 kts | 322° |
| 2026-05-05 15:32 | 51.89850 | -129.02399 | 9981 ft | 167 kts | 322° |
| 2026-05-05 15:32 | 51.90793 | -129.03490 | 9981 ft | 167 kts | 322° |
| 2026-05-05 15:32 | 51.91729 | -129.04573 | 9981 ft | 167 kts | 322° |
| 2026-05-05 15:32 | 51.92672 | -129.05665 | 9981 ft | 167 kts | 321° |
| 2026-05-05 15:33 | 51.93615 | -129.06758 | 9981 ft | 167 kts | 322° |
| 2026-05-05 15:33 | 51.94561 | -129.07855 | 9981 ft | 167 kts | 322° |
| 2026-05-05 15:33 | 51.95505 | -129.08951 | 9981 ft | 167 kts | 322° |
| 2026-05-05 15:33 | 51.96448 | -129.10044 | 9981 ft | 167 kts | 322° |
| 2026-05-05 15:34 | 51.97396 | -129.11145 | 9981 ft | 167 kts | 322° |
| 2026-05-05 15:34 | 51.98338 | -129.12238 | 9982 ft | 167 kts | 322° |
| 2026-05-05 15:34 | 51.99280 | -129.13330 | 9981 ft | 166 kts | 322° |
| 2026-05-05 15:34 | 52.00220 | -129.14424 | 9981 ft | 166 kts | 322° |
| 2026-05-05 15:35 | 52.01159 | -129.15517 | 9983 ft | 166 kts | 322° |
| 2026-05-05 15:35 | 52.02096 | -129.16608 | 9981 ft | 166 kts | 322° |
| 2026-05-05 15:35 | 52.03034 | -129.17702 | 9981 ft | 166 kts | 322° |
| 2026-05-05 15:35 | 52.03960 | -129.18782 | 9981 ft | 166 kts | 322° |
| 2026-05-05 15:36 | 52.04893 | -129.19870 | 9978 ft | 166 kts | 322° |
| 2026-05-05 15:36 | 52.05831 | -129.20965 | 9980 ft | 166 kts | 322° |
| 2026-05-05 15:36 | 52.06767 | -129.22057 | 9980 ft | 166 kts | 322° |
| 2026-05-05 15:36 | 52.07702 | -129.23149 | 9981 ft | 166 kts | 322° |
| 2026-05-05 15:37 | 52.08637 | -129.24242 | 9983 ft | 166 kts | 322° |
| 2026-05-05 15:37 | 52.09574 | -129.25338 | 9982 ft | 166 kts | 322° |
| 2026-05-05 15:37 | 52.10511 | -129.26433 | 9981 ft | 166 kts | 322° |
| 2026-05-05 15:37 | 52.11446 | -129.27529 | 9981 ft | 166 kts | 322° |
| 2026-05-05 15:38 | 52.12384 | -129.28627 | 9978 ft | 166 kts | 322° |
| 2026-05-05 15:38 | 52.13307 | -129.29707 | 9980 ft | 166 kts | 322° |
| 2026-05-05 15:38 | 52.14243 | -129.30805 | 9980 ft | 166 kts | 322° |
| 2026-05-05 15:38 | 52.15181 | -129.31905 | 9981 ft | 166 kts | 322° |
| 2026-05-05 15:39 | 52.16119 | -129.33006 | 9983 ft | 166 kts | 322° |
| 2026-05-05 15:39 | 52.17054 | -129.34104 | 9982 ft | 166 kts | 322° |
| 2026-05-05 15:39 | 52.17990 | -129.35204 | 9982 ft | 166 kts | 322° |
| 2026-05-05 15:39 | 52.18917 | -129.36292 | 9982 ft | 166 kts | 321° |
| 2026-05-05 15:40 | 52.19856 | -129.37397 | 9981 ft | 166 kts | 321° |
| 2026-05-05 15:40 | 52.20798 | -129.38504 | 9981 ft | 166 kts | 321° |
| 2026-05-05 15:40 | 52.21736 | -129.39609 | 9981 ft | 166 kts | 321° |
| 2026-05-05 15:40 | 52.22675 | -129.40715 | 9981 ft | 166 kts | 321° |
| 2026-05-05 15:41 | 52.23613 | -129.41821 | 9981 ft | 166 kts | 321° |
| 2026-05-05 15:41 | 52.24542 | -129.42917 | 9981 ft | 166 kts | 321° |
| 2026-05-05 15:41 | 52.25481 | -129.44024 | 9981 ft | 166 kts | 321° |
| 2026-05-05 15:41 | 52.26424 | -129.45138 | 9981 ft | 166 kts | 321° |
| 2026-05-05 15:42 | 52.27362 | -129.46246 | 9978 ft | 166 kts | 321° |
| 2026-05-05 15:42 | 52.28300 | -129.47355 | 9980 ft | 166 kts | 321° |
| 2026-05-05 15:42 | 52.29239 | -129.48464 | 9980 ft | 166 kts | 321° |
| 2026-05-05 15:42 | 52.30179 | -129.49576 | 9981 ft | 167 kts | 321° |
| 2026-05-05 15:43 | 52.31117 | -129.50686 | 9983 ft | 167 kts | 321° |
| 2026-05-05 15:43 | 52.32057 | -129.51800 | 9982 ft | 167 kts | 321° |
| 2026-05-05 15:43 | 52.32984 | -129.52897 | 9981 ft | 167 kts | 321° |
| 2026-05-05 15:43 | 52.33922 | -129.54009 | 9981 ft | 167 kts | 321° |
| 2026-05-05 15:44 | 52.34861 | -129.55122 | 9981 ft | 167 kts | 321° |
| 2026-05-05 15:44 | 52.35798 | -129.56235 | 9985 ft | 166 kts | 321° |
| 2026-05-05 15:44 | 52.36735 | -129.57347 | 9986 ft | 166 kts | 321° |
| 2026-05-05 15:44 | 52.37673 | -129.58461 | 9986 ft | 166 kts | 321° |
| 2026-05-05 15:45 | 52.38610 | -129.59577 | 9989 ft | 167 kts | 321° |
| 2026-05-05 15:45 | 52.39547 | -129.60690 | 9987 ft | 167 kts | 321° |
| 2026-05-05 15:45 | 52.40484 | -129.61816 | 9988 ft | 167 kts | 320° |
| 2026-05-05 15:45 | 52.41424 | -129.62942 | 9987 ft | 168 kts | 320° |
| 2026-05-05 15:46 | 52.42368 | -129.64064 | 9984 ft | 168 kts | 320° |
| 2026-05-05 15:46 | 52.43314 | -129.65187 | 9984 ft | 168 kts | 321° |
| 2026-05-05 15:46 | 52.44260 | -129.66311 | 9984 ft | 168 kts | 320° |
| 2026-05-05 15:46 | 52.45206 | -129.67436 | 9984 ft | 168 kts | 320° |
| 2026-05-05 15:47 | 52.46153 | -129.68565 | 9984 ft | 168 kts | 320° |
| 2026-05-05 15:47 | 52.46780 | -129.69312 | 9984 ft | 168 kts | 320° |
| 2026-05-05 15:47 | 52.48033 | -129.70808 | 9984 ft | 168 kts | 320° |
| 2026-05-05 15:47 | 52.48981 | -129.71942 | 9984 ft | 168 kts | 320° |
| 2026-05-05 15:48 | 52.49928 | -129.73074 | 9984 ft | 168 kts | 320° |
| 2026-05-05 15:48 | 52.50874 | -129.74207 | 9984 ft | 168 kts | 320° |
| 2026-05-05 15:48 | 52.51820 | -129.75339 | 9984 ft | 168 kts | 320° |
| 2026-05-05 15:48 | 52.52765 | -129.76473 | 9984 ft | 168 kts | 320° |
| 2026-05-05 15:49 | 52.53711 | -129.77606 | 9984 ft | 168 kts | 320° |
| 2026-05-05 15:49 | 52.54657 | -129.78742 | 9983 ft | 168 kts | 320° |
| 2026-05-05 15:49 | 52.55603 | -129.79877 | 9984 ft | 168 kts | 320° |
| 2026-05-05 15:49 | 52.56549 | -129.81013 | 9983 ft | 168 kts | 320° |
| 2026-05-05 15:50 | 52.57495 | -129.82149 | 9983 ft | 168 kts | 320° |
| 2026-05-05 15:50 | 52.58440 | -129.83286 | 9984 ft | 168 kts | 320° |
| 2026-05-05 15:50 | 52.59385 | -129.84423 | 9983 ft | 168 kts | 320° |
| 2026-05-05 15:50 | 52.60330 | -129.85560 | 9984 ft | 168 kts | 320° |
| 2026-05-05 15:51 | 52.61275 | -129.86699 | 9988 ft | 169 kts | 319° |
| 2026-05-05 15:51 | 52.62222 | -129.87847 | 9986 ft | 169 kts | 319° |
| 2026-05-05 15:51 | 52.63170 | -129.88993 | 9985 ft | 170 kts | 319° |
| 2026-05-05 15:51 | 52.64111 | -129.90128 | 9984 ft | 170 kts | 320° |
| 2026-05-05 15:52 | 52.65064 | -129.91276 | 9984 ft | 170 kts | 319° |
| 2026-05-05 15:52 | 52.66018 | -129.92427 | 9984 ft | 170 kts | 319° |
| 2026-05-05 15:52 | 52.66973 | -129.93578 | 9983 ft | 170 kts | 319° |
| 2026-05-05 15:52 | 52.67926 | -129.94730 | 9984 ft | 170 kts | 319° |
| 2026-05-05 15:53 | 52.68881 | -129.95884 | 9984 ft | 170 kts | 319° |
| 2026-05-05 15:53 | 52.69836 | -129.97038 | 9984 ft | 170 kts | 319° |
| 2026-05-05 15:53 | 52.70789 | -129.98192 | 9984 ft | 170 kts | 319° |
| 2026-05-05 15:53 | 52.71743 | -129.99347 | 9984 ft | 170 kts | 319° |
| 2026-05-05 15:54 | 52.72696 | -130.00503 | 9984 ft | 170 kts | 319° |
| 2026-05-05 15:54 | 52.73652 | -130.01662 | 9984 ft | 170 kts | 319° |
| 2026-05-05 15:54 | 52.74608 | -130.02822 | 9984 ft | 170 kts | 319° |
| 2026-05-05 15:54 | 52.75562 | -130.03980 | 9984 ft | 170 kts | 319° |
| 2026-05-05 15:55 | 52.76502 | -130.05123 | 9988 ft | 170 kts | 319° |
| 2026-05-05 15:55 | 52.77455 | -130.06281 | 9987 ft | 170 kts | 319° |
| 2026-05-05 15:55 | 52.78408 | -130.07441 | 9987 ft | 170 kts | 319° |
| 2026-05-05 15:55 | 52.79364 | -130.08604 | 9986 ft | 170 kts | 319° |
| 2026-05-05 15:56 | 52.80317 | -130.09765 | 9984 ft | 170 kts | 319° |
| 2026-05-05 15:56 | 52.81270 | -130.10926 | 9985 ft | 170 kts | 319° |
| 2026-05-05 15:56 | 52.82223 | -130.12086 | 9994 ft | 170 kts | 318° |
| 2026-05-05 15:56 | 52.83181 | -130.13240 | 9990 ft | 171 kts | 318° |
| 2026-05-05 15:57 | 52.84139 | -130.14406 | 9991 ft | 171 kts | 319° |
| 2026-05-05 15:57 | 52.85098 | -130.15573 | 9988 ft | 171 kts | 317° |
| 2026-05-05 15:57 | 52.86055 | -130.16747 | 9989 ft | 171 kts | 317° |
| 2026-05-05 15:57 | 52.87015 | -130.17925 | 9992 ft | 171 kts | 317° |
| 2026-05-05 15:58 | 52.87958 | -130.19083 | 9988 ft | 171 kts | 317° |
| 2026-05-05 15:58 | 52.88915 | -130.20258 | 9988 ft | 171 kts | 318° |
| 2026-05-05 15:58 | 52.89872 | -130.21435 | 9988 ft | 171 kts | 318° |
| 2026-05-05 15:58 | 52.90830 | -130.22608 | 9988 ft | 171 kts | 318° |
| 2026-05-05 15:59 | 52.91786 | -130.23789 | 9988 ft | 171 kts | 317° |
| 2026-05-05 15:59 | 52.92744 | -130.24963 | 9989 ft | 171 kts | 319° |
| 2026-05-05 15:59 | 52.93705 | -130.26137 | 9988 ft | 171 kts | 317° |
| 2026-05-05 15:59 | 52.94663 | -130.27319 | 9989 ft | 171 kts | 317° |
| 2026-05-05 16:00 | 52.95619 | -130.28499 | 9994 ft | 171 kts | 317° |
| 2026-05-05 16:00 | 52.96577 | -130.29678 | 9984 ft | 171 kts | 318° |
| 2026-05-05 16:00 | 52.97535 | -130.30855 | 9984 ft | 171 kts | 317° |
| 2026-05-05 16:00 | 52.98477 | -130.32022 | 9984 ft | 171 kts | 317° |
| 2026-05-05 16:01 | 52.99434 | -130.33197 | 9987 ft | 171 kts | 318° |
| 2026-05-05 16:01 | 53.00391 | -130.34373 | 9987 ft | 171 kts | 317° |
| 2026-05-05 16:01 | 53.01347 | -130.35548 | 9986 ft | 171 kts | 317° |
| 2026-05-05 16:01 | 53.02304 | -130.36727 | 9986 ft | 171 kts | 317° |
| 2026-05-05 16:02 | 53.03261 | -130.37901 | 9993 ft | 171 kts | 318° |
| 2026-05-05 16:02 | 53.04213 | -130.39091 | 9981 ft | 171 kts | 316° |
| 2026-05-05 16:02 | 53.05165 | -130.40280 | 9980 ft | 172 kts | 316° |
| 2026-05-05 16:02 | 53.06127 | -130.41462 | 9978 ft | 172 kts | 317° |
| 2026-05-05 16:03 | 53.07093 | -130.42645 | 9981 ft | 172 kts | 317° |
| 2026-05-05 16:03 | 53.08059 | -130.43829 | 9978 ft | 172 kts | 317° |
| 2026-05-05 16:03 | 53.09026 | -130.45018 | 9978 ft | 172 kts | 317° |
| 2026-05-05 16:03 | 53.09989 | -130.46206 | 9978 ft | 172 kts | 317° |
| 2026-05-05 16:04 | 53.10951 | -130.47401 | 9978 ft | 172 kts | 317° |
| 2026-05-05 16:04 | 53.11913 | -130.48595 | 9970 ft | 172 kts | 316° |
| 2026-05-05 16:04 | 53.12861 | -130.49779 | 9974 ft | 173 kts | 317° |
| 2026-05-05 16:04 | 53.13823 | -130.50980 | 9969 ft | 173 kts | 317° |
| 2026-05-05 16:05 | 53.14786 | -130.52177 | 9970 ft | 173 kts | 317° |
| 2026-05-05 16:05 | 53.15748 | -130.53377 | 9970 ft | 173 kts | 317° |
| 2026-05-05 16:05 | 53.16713 | -130.54576 | 9969 ft | 173 kts | 317° |
| 2026-05-05 16:05 | 53.17676 | -130.55771 | 9972 ft | 173 kts | 317° |
| 2026-05-05 16:06 | 53.18641 | -130.56970 | 9971 ft | 173 kts | 317° |
| 2026-05-05 16:06 | 53.19602 | -130.58172 | 9975 ft | 173 kts | 317° |
| 2026-05-05 16:06 | 53.20552 | -130.59362 | 9964 ft | 173 kts | 316° |
| 2026-05-05 16:06 | 53.21473 | -130.60623 | 9961 ft | 170 kts | 314° |
| 2026-05-05 16:07 | 53.22408 | -130.61846 | 9964 ft | 171 kts | 318° |
| 2026-05-05 16:07 | 53.23377 | -130.63007 | 9962 ft | 171 kts | 319° |
| 2026-05-05 16:07 | 53.24344 | -130.64165 | 9963 ft | 171 kts | 319° |
| 2026-05-05 16:07 | 53.25309 | -130.65333 | 9968 ft | 172 kts | 318° |
| 2026-05-05 16:08 | 53.26271 | -130.66518 | 9966 ft | 172 kts | 317° |
| 2026-05-05 16:08 | 53.27227 | -130.67708 | 9964 ft | 172 kts | 317° |
| 2026-05-05 16:08 | 53.28186 | -130.68904 | 9964 ft | 172 kts | 317° |
| 2026-05-05 16:08 | 53.29144 | -130.70105 | 9964 ft | 172 kts | 317° |
| 2026-05-05 16:09 | 53.30103 | -130.71307 | 9966 ft | 172 kts | 317° |
| 2026-05-05 16:09 | 53.31064 | -130.72512 | 9972 ft | 173 kts | 317° |
| 2026-05-05 16:09 | 53.32024 | -130.73718 | 9964 ft | 172 kts | 317° |
| 2026-05-05 16:09 | 53.32984 | -130.74924 | 9963 ft | 173 kts | 317° |
| 2026-05-05 16:10 | 53.33944 | -130.76131 | 9963 ft | 173 kts | 317° |
| 2026-05-05 16:10 | 53.34904 | -130.77337 | 9963 ft | 173 kts | 317° |
| 2026-05-05 16:10 | 53.35862 | -130.78543 | 9964 ft | 172 kts | 317° |
| 2026-05-05 16:10 | 53.36809 | -130.79735 | 9964 ft | 172 kts | 317° |
| 2026-05-05 16:11 | 53.37768 | -130.80945 | 9996 ft | 172 kts | 317° |
| 2026-05-05 16:11 | 53.40646 | -130.84575 | 9991 ft | 173 kts | 317° |
| 2026-05-05 16:12 | 53.41606 | -130.85787 | 9991 ft | 173 kts | 317° |
| 2026-05-05 16:12 | 53.43523 | -130.88210 | 9995 ft | 172 kts | 317° |
| 2026-05-05 16:13 | 53.46392 | -130.91842 | 10001 ft | 173 kts | 316° |
| 2026-05-05 16:13 | 53.47353 | -130.93065 | 9997 ft | 174 kts | 316° |
| 2026-05-05 16:13 | 53.48334 | -130.94261 | 9994 ft | 176 kts | 322° |
| 2026-05-05 16:14 | 53.50634 | -130.95885 | 9994 ft | 181 kts | 333° |
| 2026-05-05 16:14 | 53.52963 | -130.97416 | 9992 ft | 181 kts | 333° |
| 2026-05-05 16:15 | 53.55311 | -130.98973 | 9991 ft | 181 kts | 333° |
| 2026-05-05 16:15 | 53.57658 | -131.00534 | 10013 ft | 181 kts | 333° |
| 2026-05-05 16:16 | 53.60004 | -131.02095 | 10013 ft | 181 kts | 333° |
| 2026-05-05 16:16 | 53.62348 | -131.03658 | 10014 ft | 181 kts | 333° |
| 2026-05-05 16:17 | 53.64315 | -131.04972 | 10014 ft | 181 kts | 333° |
| 2026-05-05 16:17 | 53.65489 | -131.05755 | 10014 ft | 181 kts | 333° |
| 2026-05-05 16:18 | 53.67835 | -131.07325 | 10008 ft | 181 kts | 333° |
| 2026-05-05 16:18 | 53.69009 | -131.08110 | 10008 ft | 181 kts | 333° |
| 2026-05-05 16:18 | 53.71341 | -131.09672 | 10028 ft | 182 kts | 333° |
| 2026-05-05 16:19 | 53.72522 | -131.10464 | 10021 ft | 183 kts | 333° |
| 2026-05-05 16:19 | 53.73707 | -131.11259 | 10018 ft | 183 kts | 333° |
| 2026-05-05 16:19 | 53.76082 | -131.12851 | 10014 ft | 184 kts | 333° |
| 2026-05-05 16:20 | 53.78454 | -131.14445 | 10005 ft | 183 kts | 333° |
| 2026-05-05 16:20 | 53.80826 | -131.16041 | 10006 ft | 183 kts | 333° |
| 2026-05-05 16:21 | 53.83194 | -131.17637 | 10008 ft | 183 kts | 333° |
| 2026-05-05 16:22 | 53.86727 | -131.20021 | 10008 ft | 183 kts | 333° |
| 2026-05-05 16:22 | 53.89092 | -131.21621 | 10008 ft | 183 kts | 333° |
| 2026-05-05 16:23 | 53.91455 | -131.23221 | 10009 ft | 183 kts | 333° |
| 2026-05-05 16:23 | 53.92637 | -131.24021 | 10009 ft | 183 kts | 333° |
| 2026-05-05 16:23 | 53.95008 | -131.25628 | 10003 ft | 183 kts | 332° |
| 2026-05-05 16:24 | 53.96189 | -131.26438 | 10003 ft | 183 kts | 333° |
| 2026-05-05 16:24 | 53.97355 | -131.27229 | 10015 ft | 183 kts | 332° |
| 2026-05-05 16:24 | 53.99722 | -131.28862 | 10008 ft | 184 kts | 330° |
| 2026-05-05 16:25 | 54.00908 | -131.29682 | 10009 ft | 184 kts | 330° |
| 2026-05-05 16:25 | 54.03293 | -131.31309 | 10009 ft | 185 kts | 332° |
| 2026-05-05 16:25 | 54.04491 | -131.32105 | 10008 ft | 185 kts | 332° |
| 2026-05-05 16:26 | 54.06877 | -131.33735 | 10004 ft | 184 kts | 331° |
| 2026-05-05 16:26 | 54.09257 | -131.35368 | 10005 ft | 185 kts | 333° |
| 2026-05-05 16:27 | 54.10451 | -131.36169 | 10006 ft | 185 kts | 333° |
| 2026-05-05 16:27 | 54.11643 | -131.36968 | 10006 ft | 185 kts | 332° |
| 2026-05-05 16:27 | 54.12835 | -131.37782 | 10006 ft | 185 kts | 332° |
| 2026-05-05 16:27 | 54.14025 | -131.38604 | 10005 ft | 184 kts | 329° |
| 2026-05-05 16:28 | 54.15203 | -131.39454 | 10005 ft | 184 kts | 330° |
| 2026-05-05 16:28 | 54.16378 | -131.40272 | 10006 ft | 184 kts | 332° |
| 2026-05-05 16:28 | 54.17568 | -131.41082 | 10005 ft | 184 kts | 331° |
| 2026-05-05 16:28 | 54.18759 | -131.41899 | 10004 ft | 184 kts | 331° |
| 2026-05-05 16:29 | 54.19953 | -131.42719 | 9995 ft | 185 kts | 332° |
| 2026-05-05 16:29 | 54.21150 | -131.43538 | 9995 ft | 185 kts | 332° |
| 2026-05-05 16:29 | 54.22355 | -131.44325 | 9995 ft | 185 kts | 332° |
| 2026-05-05 16:29 | 54.23537 | -131.45123 | 9994 ft | 185 kts | 331° |
| 2026-05-05 16:30 | 54.24729 | -131.45946 | 9995 ft | 185 kts | 330° |
| 2026-05-05 16:30 | 54.25921 | -131.46766 | 9996 ft | 185 kts | 330° |
| 2026-05-05 16:30 | 54.27112 | -131.47591 | 9996 ft | 185 kts | 332° |
| 2026-05-05 16:30 | 54.28302 | -131.48425 | 9994 ft | 185 kts | 332° |
| 2026-05-05 16:31 | 54.29494 | -131.49245 | 9997 ft | 185 kts | 331° |
| 2026-05-05 16:31 | 54.30691 | -131.50070 | 9996 ft | 185 kts | 330° |
| 2026-05-05 16:31 | 54.31885 | -131.50898 | 9994 ft | 185 kts | 333° |
| 2026-05-05 16:31 | 54.33078 | -131.51720 | 9995 ft | 185 kts | 331° |
| 2026-05-05 16:32 | 54.34271 | -131.52541 | 9995 ft | 185 kts | 330° |
| 2026-05-05 16:32 | 54.35460 | -131.53377 | 9994 ft | 184 kts | 330° |
| 2026-05-05 16:32 | 54.36646 | -131.54216 | 9994 ft | 184 kts | 330° |
| 2026-05-05 16:32 | 54.37841 | -131.55029 | 9995 ft | 185 kts | 333° |
| 2026-05-05 16:33 | 54.39037 | -131.55837 | 9995 ft | 184 kts | 331° |
| 2026-05-05 16:33 | 54.40213 | -131.56665 | 9995 ft | 185 kts | 330° |
| 2026-05-05 16:33 | 54.41399 | -131.57510 | 9995 ft | 185 kts | 332° |
| 2026-05-05 16:33 | 54.42590 | -131.58341 | 9994 ft | 185 kts | 330° |
| 2026-05-05 16:34 | 54.43783 | -131.59169 | 9988 ft | 185 kts | 332° |
| 2026-05-05 16:34 | 54.44972 | -131.59995 | 9989 ft | 184 kts | 332° |
| 2026-05-05 16:34 | 54.46158 | -131.60834 | 9989 ft | 185 kts | 332° |
| 2026-05-05 16:34 | 54.47354 | -131.61660 | 9990 ft | 185 kts | 333° |
| 2026-05-05 16:35 | 54.48549 | -131.62477 | 9999 ft | 185 kts | 331° |
| 2026-05-05 16:35 | 54.49746 | -131.63302 | 9989 ft | 186 kts | 332° |
| 2026-05-05 16:35 | 54.50947 | -131.64131 | 9986 ft | 186 kts | 332° |
| 2026-05-05 16:35 | 54.52191 | -131.64775 | 9983 ft | 191 kts | 349° |
| 2026-05-05 16:36 | 54.53530 | -131.64712 | 9985 ft | 193 kts | 1° |
| 2026-05-05 16:36 | 54.54866 | -131.64522 | 9984 ft | 192 kts | 1° |
| 2026-05-05 16:36 | 54.56199 | -131.64335 | 9984 ft | 192 kts | 1° |
| 2026-05-05 16:36 | 54.57505 | -131.64154 | 9983 ft | 191 kts | 1° |
| 2026-05-05 16:37 | 54.58830 | -131.63974 | 9983 ft | 191 kts | 1° |
| 2026-05-05 16:37 | 54.60154 | -131.63797 | 9983 ft | 190 kts | 1° |
| 2026-05-05 16:37 | 54.61478 | -131.63623 | 9983 ft | 190 kts | 1° |
| 2026-05-05 16:37 | 54.62798 | -131.63451 | 9978 ft | 190 kts | 1° |
| 2026-05-05 16:38 | 54.64117 | -131.63280 | 9978 ft | 190 kts | 1° |
| 2026-05-05 16:38 | 54.65437 | -131.63109 | 9978 ft | 190 kts | 1° |
| 2026-05-05 16:38 | 54.66756 | -131.62938 | 9979 ft | 190 kts | 1° |
| 2026-05-05 16:38 | 54.68076 | -131.62767 | 9978 ft | 190 kts | 1° |
| 2026-05-05 16:39 | 54.69396 | -131.62596 | 9978 ft | 190 kts | 1° |
| 2026-05-05 16:39 | 54.70715 | -131.62424 | 9978 ft | 190 kts | 1° |
| 2026-05-05 16:39 | 54.72039 | -131.62252 | 9978 ft | 190 kts | 1° |
| 2026-05-05 16:39 | 54.73358 | -131.62080 | 9978 ft | 190 kts | 1° |
| 2026-05-05 16:40 | 54.74678 | -131.61908 | 9978 ft | 190 kts | 1° |
| 2026-05-05 16:40 | 54.76001 | -131.61737 | 9978 ft | 190 kts | 1° |
| 2026-05-05 16:40 | 54.77319 | -131.61564 | 9970 ft | 190 kts | 1° |
| 2026-05-05 16:40 | 54.78620 | -131.61395 | 9970 ft | 190 kts | 1° |
| 2026-05-05 16:41 | 54.79939 | -131.61223 | 9970 ft | 190 kts | 1° |
| 2026-05-05 16:41 | 54.81259 | -131.61051 | 9970 ft | 190 kts | 1° |
| 2026-05-05 16:41 | 54.82576 | -131.60879 | 9970 ft | 190 kts | 1° |
| 2026-05-05 16:41 | 54.83896 | -131.60707 | 9970 ft | 190 kts | 1° |
| 2026-05-05 16:42 | 54.85217 | -131.60535 | 9977 ft | 191 kts | 1° |
| 2026-05-05 16:42 | 54.86542 | -131.60370 | 9975 ft | 191 kts | 1° |
| 2026-05-05 16:42 | 54.87865 | -131.60201 | 9973 ft | 191 kts | 1° |
| 2026-05-05 16:42 | 54.89193 | -131.60030 | 9972 ft | 191 kts | 1° |
| 2026-05-05 16:43 | 54.90521 | -131.59857 | 9979 ft | 191 kts | 2° |
| 2026-05-05 16:43 | 54.91849 | -131.59682 | 9963 ft | 190 kts | 2° |
| 2026-05-05 16:43 | 54.93167 | -131.59509 | 9958 ft | 190 kts | 2° |
| 2026-05-05 16:43 | 54.94487 | -131.59334 | 9969 ft | 190 kts | 2° |
| 2026-05-05 16:44 | 54.95803 | -131.59162 | 9968 ft | 190 kts | 2° |
| 2026-05-05 16:44 | 54.97122 | -131.58990 | 9968 ft | 189 kts | 2° |
| 2026-05-05 16:44 | 54.98435 | -131.58817 | 9968 ft | 189 kts | 2° |
| 2026-05-05 16:44 | 54.99725 | -131.58646 | 9967 ft | 189 kts | 2° |
| 2026-05-05 16:45 | 55.01038 | -131.58472 | 9969 ft | 189 kts | 2° |
| 2026-05-05 16:45 | 55.02351 | -131.58299 | 9973 ft | 190 kts | 2° |
| 2026-05-05 16:45 | 55.03681 | -131.58125 | 9882 ft | 195 kts | 2° |
| 2026-05-05 16:45 | 55.05034 | -131.57943 | 9726 ft | 194 kts | 2° |
| 2026-05-05 16:46 | 55.06329 | -131.57962 | 9542 ft | 179 kts | 347° |
| 2026-05-05 16:46 | 55.07481 | -131.58532 | 9358 ft | 169 kts | 339° |
| 2026-05-05 16:46 | 55.08599 | -131.59054 | 9179 ft | 165 kts | 342° |
| 2026-05-05 16:46 | 55.09702 | -131.59527 | 8994 ft | 162 kts | 342° |
| 2026-05-05 16:47 | 55.10788 | -131.59999 | 8822 ft | 160 kts | 342° |
| 2026-05-05 16:47 | 55.11864 | -131.60474 | 8640 ft | 159 kts | 341° |
| 2026-05-05 16:47 | 55.12929 | -131.60951 | 8460 ft | 157 kts | 341° |
| 2026-05-05 16:47 | 55.13988 | -131.61426 | 8286 ft | 157 kts | 341° |
| 2026-05-05 16:48 | 55.15039 | -131.61901 | 8111 ft | 156 kts | 341° |
| 2026-05-05 16:48 | 55.16075 | -131.62368 | 7939 ft | 155 kts | 341° |
| 2026-05-05 16:48 | 55.17116 | -131.62839 | 7763 ft | 154 kts | 342° |
| 2026-05-05 16:48 | 55.18154 | -131.63307 | 7607 ft | 154 kts | 342° |
| 2026-05-05 16:49 | 55.19188 | -131.63775 | 7429 ft | 153 kts | 342° |
| 2026-05-05 16:49 | 55.20219 | -131.64240 | 7264 ft | 153 kts | 342° |
| 2026-05-05 16:49 | 55.21247 | -131.64706 | 7095 ft | 152 kts | 342° |
| 2026-05-05 16:49 | 55.22255 | -131.65153 | 6920 ft | 144 kts | 343° |
| 2026-05-05 16:50 | 55.23191 | -131.65561 | 6741 ft | 134 kts | 342° |
| 2026-05-05 16:50 | 55.24092 | -131.65827 | 6566 ft | 129 kts | 347° |
| 2026-05-05 16:50 | 55.24941 | -131.66194 | 6398 ft | 124 kts | 340° |
| 2026-05-05 16:50 | 55.25758 | -131.66624 | 6224 ft | 121 kts | 339° |
| 2026-05-05 16:51 | 55.26562 | -131.67041 | 6049 ft | 120 kts | 340° |
| 2026-05-05 16:51 | 55.27359 | -131.67436 | 5876 ft | 119 kts | 341° |
| 2026-05-05 16:51 | 55.28152 | -131.67815 | 5702 ft | 118 kts | 342° |
| 2026-05-05 16:51 | 55.28943 | -131.68183 | 5521 ft | 118 kts | 342° |
| 2026-05-05 16:52 | 55.29739 | -131.68549 | 5325 ft | 119 kts | 343° |
| 2026-05-05 16:52 | 55.30539 | -131.68827 | 5128 ft | 120 kts | 7° |
| 2026-05-05 16:52 | 55.31299 | -131.68234 | 4956 ft | 120 kts | 31° |
| 2026-05-05 16:52 | 55.32020 | -131.67483 | 4769 ft | 121 kts | 33° |
| 2026-05-05 16:53 | 55.32745 | -131.66709 | 4578 ft | 122 kts | 33° |
| 2026-05-05 16:53 | 55.33470 | -131.65940 | 4358 ft | 122 kts | 32° |
| 2026-05-05 16:53 | 55.34240 | -131.65314 | 4084 ft | 125 kts | 12° |
| 2026-05-05 16:53 | 55.35100 | -131.65417 | 3872 ft | 123 kts | 341° |
| 2026-05-05 16:54 | 55.35848 | -131.66218 | 3531 ft | 129 kts | 315° |
| 2026-05-05 16:54 | 55.36342 | -131.67460 | 3289 ft | 125 kts | 290° |
| 2026-05-05 16:54 | 55.36471 | -131.68980 | 2933 ft | 127 kts | 264° |
| 2026-05-05 16:54 | 55.36213 | -131.70366 | 2778 ft | 115 kts | 232° |
| 2026-05-05 16:55 | 55.35704 | -131.71472 | 2552 ft | 116 kts | 230° |
| 2026-05-05 16:55 | 55.35196 | -131.72519 | 2414 ft | 111 kts | 227° |
| 2026-05-05 16:55 | 55.34814 | -131.73551 | 2420 ft | 89 kts | 254° |
| 2026-05-05 16:55 | 55.34957 | -131.74550 | 2244 ft | 94 kts | 314° |
| 2026-05-05 16:56 | 55.35520 | -131.74887 | 2133 ft | 79 kts | 6° |
| 2026-05-05 16:56 | 55.36035 | -131.74481 | 1875 ft | 87 kts | 52° |
| 2026-05-05 16:56 | 55.36039 | -131.73459 | 1656 ft | 86 kts | 128° |
| 2026-05-05 16:56 | 55.35601 | -131.72812 | 1520 ft | 80 kts | 144° |
| 2026-05-05 16:57 | 55.35171 | -131.72232 | 1380 ft | 78 kts | 140° |
| 2026-05-05 16:57 | 55.34748 | -131.71612 | 1215 ft | 78 kts | 141° |
| 2026-05-05 16:57 | 55.34322 | -131.70975 | 1010 ft | 82 kts | 139° |
| 2026-05-05 16:57 | 55.33877 | -131.70335 | 818 ft | 82 kts | 135° |
| 2026-05-05 16:58 | 55.33945 | -131.69459 | 485 ft | 86 kts | 28° |
| 2026-05-05 16:58 | 55.34493 | -131.69565 | 277 ft | 82 kts | 323° |
| 2026-05-05 16:58 | 55.34896 | -131.70235 | 124 ft | 76 kts | 316° |
| 2026-05-05 16:58 | 55.35239 | -131.70827 | 99 ft | 63 kts | 315° |
| 2026-05-05 16:59 | 55.35514 | -131.71308 | 98 ft | 47 kts | 315° |
| 2026-05-05 16:59 | 55.35712 | -131.71650 | 97 ft | 34 kts | 315° |
| 2026-05-05 16:59 | 55.35857 | -131.71904 | 99 ft | 23 kts | 316° |
| 2026-05-05 16:59 | 55.35964 | -131.72095 | 99 ft | 23 kts | 312° |
| 2026-05-05 17:00 | 55.36068 | -131.72269 | 96 ft | 15 kts | 327° |
| 2026-05-05 17:00 | 55.36136 | -131.72332 | 97 ft | 13 kts | 5° |
| 2026-05-05 17:00 | 55.36178 | -131.72211 | 98 ft | 12 kts | 104° |
| 2026-05-05 17:00 | 55.36138 | -131.72095 | 98 ft | 12 kts | 132° |
| 2026-05-05 17:01 | 55.36077 | -131.71957 | 99 ft | 15 kts | 132° |
| 2026-05-05 17:01 | 55.36009 | -131.71836 | 99 ft | 13 kts | 134° |
| 2026-05-05 17:01 | 55.35951 | -131.71727 | 99 ft | 11 kts | 132° |
| 2026-05-05 17:01 | 55.35889 | -131.71610 | 99 ft | 14 kts | 135° |
| 2026-05-05 17:02 | 55.35831 | -131.71509 | 99 ft | 10 kts | 134° |
| 2026-05-05 17:02 | 55.35765 | -131.71407 | 99 ft | 17 kts | 136° |
| 2026-05-05 17:02 | 55.35666 | -131.71242 | 100 ft | 22 kts | 134° |
| 2026-05-05 17:02 | 55.35579 | -131.71106 | 100 ft | 11 kts | 135° |
| 2026-05-05 17:03 | 55.35555 | -131.71043 | 100 ft | 3 kts | 66° |
| 2026-05-05 17:03 | 55.35566 | -131.71004 | 100 ft | 5 kts | 70° |
| 2026-05-05 17:03 | 55.35560 | -131.70980 | 100 ft | 0 kts | 137° |
| 2026-05-05 17:03 | 55.35560 | -131.70981 | 100 ft | 0 kts | 137° |